<?xml version="1.0" encoding="UTF-8" standalone="no" ?>
<gpx xmlns="http://www.topografix.com/GPX/1/1" xmlns:xsi="http://www.w3.org/2001/XMLSchema-instance" xsi:schemaLocation="http://www.topografix.com/GPX/1/1 http://www.topografix.com/GPX/1/1/gpx.xsd" version="1.1" creator="VisuGPX - https://www.visugpx.com">
  <metadata>
    <name>13686238-ROC'N TOUR 2021 - 60km</name>
  </metadata>
  <trk>
    <name><![CDATA[13686238-ROC'N TOUR 2021 - 60km]]></name>
    <trkseg>
      <trkpt lat="45.72267" lon="3.33284">
        <ele>354</ele>
        <time>2021-09-10T19:58:54Z</time>
      </trkpt>
      <trkpt lat="45.72232" lon="3.33313">
        <ele>356</ele>
        <time>2021-09-10T19:59:03Z</time>
      </trkpt>
      <trkpt lat="45.72219" lon="3.33276">
        <ele>355</ele>
        <time>2021-09-10T19:59:10Z</time>
      </trkpt>
      <trkpt lat="45.7219" lon="3.33273">
        <ele>356</ele>
        <time>2021-09-10T19:59:17Z</time>
      </trkpt>
      <trkpt lat="45.72176" lon="3.33253">
        <ele>356</ele>
        <time>2021-09-10T19:59:22Z</time>
      </trkpt>
      <trkpt lat="45.72167" lon="3.33234">
        <ele>356</ele>
        <time>2021-09-10T19:59:25Z</time>
      </trkpt>
      <trkpt lat="45.72152" lon="3.33233">
        <ele>357</ele>
        <time>2021-09-10T19:59:29Z</time>
      </trkpt>
      <trkpt lat="45.7209" lon="3.33246">
        <ele>361</ele>
        <time>2021-09-10T19:59:43Z</time>
      </trkpt>
      <trkpt lat="45.72074" lon="3.33256">
        <ele>361</ele>
        <time>2021-09-10T19:59:48Z</time>
      </trkpt>
      <trkpt lat="45.72071" lon="3.33284">
        <ele>362</ele>
        <time>2021-09-10T19:59:52Z</time>
      </trkpt>
      <trkpt lat="45.72059" lon="3.333">
        <ele>363</ele>
        <time>2021-09-10T19:59:56Z</time>
      </trkpt>
      <trkpt lat="45.72042" lon="3.33318">
        <ele>364</ele>
        <time>2021-09-10T20:00:01Z</time>
      </trkpt>
      <trkpt lat="45.72012" lon="3.33323">
        <ele>364</ele>
        <time>2021-09-10T20:00:08Z</time>
      </trkpt>
      <trkpt lat="45.72019" lon="3.3342">
        <ele>371</ele>
        <time>2021-09-10T20:00:24Z</time>
      </trkpt>
      <trkpt lat="45.72033" lon="3.33516">
        <ele>374</ele>
        <time>2021-09-10T20:00:40Z</time>
      </trkpt>
      <trkpt lat="45.72026" lon="3.33551">
        <ele>375</ele>
        <time>2021-09-10T20:00:46Z</time>
      </trkpt>
      <trkpt lat="45.7183" lon="3.33481">
        <ele>376</ele>
        <time>2021-09-10T20:01:33Z</time>
      </trkpt>
      <trkpt lat="45.71807" lon="3.33527">
        <ele>376</ele>
        <time>2021-09-10T20:01:42Z</time>
      </trkpt>
      <trkpt lat="45.71672" lon="3.33639">
        <ele>371</ele>
        <time>2021-09-10T20:02:19Z</time>
      </trkpt>
      <trkpt lat="45.71661" lon="3.33638">
        <ele>371</ele>
        <time>2021-09-10T20:02:21Z</time>
      </trkpt>
      <trkpt lat="45.71649" lon="3.33644">
        <ele>371</ele>
        <time>2021-09-10T20:02:24Z</time>
      </trkpt>
      <trkpt lat="45.71578" lon="3.33656">
        <ele>371</ele>
        <time>2021-09-10T20:02:41Z</time>
      </trkpt>
      <trkpt lat="45.71552" lon="3.33657">
        <ele>370</ele>
        <time>2021-09-10T20:02:47Z</time>
      </trkpt>
      <trkpt lat="45.71517" lon="3.33646">
        <ele>370</ele>
        <time>2021-09-10T20:02:55Z</time>
      </trkpt>
      <trkpt lat="45.71404" lon="3.33556">
        <ele>371</ele>
        <time>2021-09-10T20:03:26Z</time>
      </trkpt>
      <trkpt lat="45.71331" lon="3.33479">
        <ele>376</ele>
        <time>2021-09-10T20:03:47Z</time>
      </trkpt>
      <trkpt lat="45.71266" lon="3.33425">
        <ele>377</ele>
        <time>2021-09-10T20:04:04Z</time>
      </trkpt>
      <trkpt lat="45.71233" lon="3.3338">
        <ele>377</ele>
        <time>2021-09-10T20:04:15Z</time>
      </trkpt>
      <trkpt lat="45.71218" lon="3.33375">
        <ele>377</ele>
        <time>2021-09-10T20:04:18Z</time>
      </trkpt>
      <trkpt lat="45.71144" lon="3.33375">
        <ele>377</ele>
        <time>2021-09-10T20:04:36Z</time>
      </trkpt>
      <trkpt lat="45.71137" lon="3.33382">
        <ele>377</ele>
        <time>2021-09-10T20:04:38Z</time>
      </trkpt>
      <trkpt lat="45.71135" lon="3.33244">
        <ele>377</ele>
        <time>2021-09-10T20:05:00Z</time>
      </trkpt>
      <trkpt lat="45.71205" lon="3.33228">
        <ele>377</ele>
        <time>2021-09-10T20:05:17Z</time>
      </trkpt>
      <trkpt lat="45.71205" lon="3.3309">
        <ele>375</ele>
        <time>2021-09-10T20:05:39Z</time>
      </trkpt>
      <trkpt lat="45.7116" lon="3.33094">
        <ele>375</ele>
        <time>2021-09-10T20:05:50Z</time>
      </trkpt>
      <trkpt lat="45.71094" lon="3.33087">
        <ele>378</ele>
        <time>2021-09-10T20:06:05Z</time>
      </trkpt>
      <trkpt lat="45.70959" lon="3.3309">
        <ele>381</ele>
        <time>2021-09-10T20:06:37Z</time>
      </trkpt>
      <trkpt lat="45.70885" lon="3.32934">
        <ele>385</ele>
        <time>2021-09-10T20:07:08Z</time>
      </trkpt>
      <trkpt lat="45.70966" lon="3.32802">
        <ele>386</ele>
        <time>2021-09-10T20:07:36Z</time>
      </trkpt>
      <trkpt lat="45.71102" lon="3.32452">
        <ele>370</ele>
        <time>2021-09-10T20:08:42Z</time>
      </trkpt>
      <trkpt lat="45.71154" lon="3.32237">
        <ele>369</ele>
        <time>2021-09-10T20:09:19Z</time>
      </trkpt>
      <trkpt lat="45.7119" lon="3.32163">
        <ele>369</ele>
        <time>2021-09-10T20:09:33Z</time>
      </trkpt>
      <trkpt lat="45.71299" lon="3.31871">
        <ele>372</ele>
        <time>2021-09-10T20:10:27Z</time>
      </trkpt>
      <trkpt lat="45.71363" lon="3.31516">
        <ele>381</ele>
        <time>2021-09-10T20:11:27Z</time>
      </trkpt>
      <trkpt lat="45.71481" lon="3.31014">
        <ele>375</ele>
        <time>2021-09-10T20:12:54Z</time>
      </trkpt>
      <trkpt lat="45.71387" lon="3.30927">
        <ele>375</ele>
        <time>2021-09-10T20:13:20Z</time>
      </trkpt>
      <trkpt lat="45.71249" lon="3.30838">
        <ele>378</ele>
        <time>2021-09-10T20:13:55Z</time>
      </trkpt>
      <trkpt lat="45.71281" lon="3.30711">
        <ele>379</ele>
        <time>2021-09-10T20:14:17Z</time>
      </trkpt>
      <trkpt lat="45.71273" lon="3.30476">
        <ele>386</ele>
        <time>2021-09-10T20:14:55Z</time>
      </trkpt>
      <trkpt lat="45.71257" lon="3.30335">
        <ele>390</ele>
        <time>2021-09-10T20:15:19Z</time>
      </trkpt>
      <trkpt lat="45.71229" lon="3.30175">
        <ele>397</ele>
        <time>2021-09-10T20:15:46Z</time>
      </trkpt>
      <trkpt lat="45.71135" lon="3.29957">
        <ele>399</ele>
        <time>2021-09-10T20:16:27Z</time>
      </trkpt>
      <trkpt lat="45.71058" lon="3.29991">
        <ele>405</ele>
        <time>2021-09-10T20:16:46Z</time>
      </trkpt>
      <trkpt lat="45.70784" lon="3.30061">
        <ele>420</ele>
        <time>2021-09-10T20:17:51Z</time>
      </trkpt>
      <trkpt lat="45.70764" lon="3.29528">
        <ele>415</ele>
        <time>2021-09-10T20:19:18Z</time>
      </trkpt>
      <trkpt lat="45.70552" lon="3.29333">
        <ele>432</ele>
        <time>2021-09-10T20:20:17Z</time>
      </trkpt>
      <trkpt lat="45.70407" lon="3.29268">
        <ele>444</ele>
        <time>2021-09-10T20:20:53Z</time>
      </trkpt>
      <trkpt lat="45.70264" lon="3.29229">
        <ele>460</ele>
        <time>2021-09-10T20:21:27Z</time>
      </trkpt>
      <trkpt lat="45.70219" lon="3.29227">
        <ele>464</ele>
        <time>2021-09-10T20:21:37Z</time>
      </trkpt>
      <trkpt lat="45.70196" lon="3.29204">
        <ele>466</ele>
        <time>2021-09-10T20:21:44Z</time>
      </trkpt>
      <trkpt lat="45.70185" lon="3.29176">
        <ele>468</ele>
        <time>2021-09-10T20:21:49Z</time>
      </trkpt>
      <trkpt lat="45.70147" lon="3.2915">
        <ele>472</ele>
        <time>2021-09-10T20:21:59Z</time>
      </trkpt>
      <trkpt lat="45.70074" lon="3.29117">
        <ele>479</ele>
        <time>2021-09-10T20:22:17Z</time>
      </trkpt>
      <trkpt lat="45.69922" lon="3.29185">
        <ele>491</ele>
        <time>2021-09-10T20:22:54Z</time>
      </trkpt>
      <trkpt lat="45.69821" lon="3.29244">
        <ele>491</ele>
        <time>2021-09-10T20:23:19Z</time>
      </trkpt>
      <trkpt lat="45.69717" lon="3.29316">
        <ele>493</ele>
        <time>2021-09-10T20:23:46Z</time>
      </trkpt>
      <trkpt lat="45.69665" lon="3.29286">
        <ele>499</ele>
        <time>2021-09-10T20:23:59Z</time>
      </trkpt>
      <trkpt lat="45.69654" lon="3.29357">
        <ele>495</ele>
        <time>2021-09-10T20:24:11Z</time>
      </trkpt>
      <trkpt lat="45.69621" lon="3.29427">
        <ele>495</ele>
        <time>2021-09-10T20:24:25Z</time>
      </trkpt>
      <trkpt lat="45.69537" lon="3.29547">
        <ele>495</ele>
        <time>2021-09-10T20:24:53Z</time>
      </trkpt>
      <trkpt lat="45.69528" lon="3.29586">
        <ele>494</ele>
        <time>2021-09-10T20:24:59Z</time>
      </trkpt>
      <trkpt lat="45.69467" lon="3.29604">
        <ele>494</ele>
        <time>2021-09-10T20:25:14Z</time>
      </trkpt>
      <trkpt lat="45.69404" lon="3.29603">
        <ele>497</ele>
        <time>2021-09-10T20:25:29Z</time>
      </trkpt>
      <trkpt lat="45.69363" lon="3.29612">
        <ele>499</ele>
        <time>2021-09-10T20:25:38Z</time>
      </trkpt>
      <trkpt lat="45.69298" lon="3.29604">
        <ele>501</ele>
        <time>2021-09-10T20:25:54Z</time>
      </trkpt>
      <trkpt lat="45.69238" lon="3.296">
        <ele>501</ele>
        <time>2021-09-10T20:26:08Z</time>
      </trkpt>
      <trkpt lat="45.69206" lon="3.29606">
        <ele>500</ele>
        <time>2021-09-10T20:26:15Z</time>
      </trkpt>
      <trkpt lat="45.69149" lon="3.29666">
        <ele>496</ele>
        <time>2021-09-10T20:26:32Z</time>
      </trkpt>
      <trkpt lat="45.691" lon="3.29703">
        <ele>493</ele>
        <time>2021-09-10T20:26:45Z</time>
      </trkpt>
      <trkpt lat="45.6905" lon="3.29747">
        <ele>491</ele>
        <time>2021-09-10T20:26:58Z</time>
      </trkpt>
      <trkpt lat="45.69011" lon="3.29772">
        <ele>491</ele>
        <time>2021-09-10T20:27:08Z</time>
      </trkpt>
      <trkpt lat="45.68966" lon="3.29794">
        <ele>493</ele>
        <time>2021-09-10T20:27:19Z</time>
      </trkpt>
      <trkpt lat="45.68941" lon="3.29826">
        <ele>494</ele>
        <time>2021-09-10T20:27:27Z</time>
      </trkpt>
      <trkpt lat="45.68949" lon="3.29903">
        <ele>492</ele>
        <time>2021-09-10T20:27:40Z</time>
      </trkpt>
      <trkpt lat="45.68942" lon="3.29945">
        <ele>492</ele>
        <time>2021-09-10T20:27:47Z</time>
      </trkpt>
      <trkpt lat="45.68895" lon="3.29953">
        <ele>498</ele>
        <time>2021-09-10T20:27:58Z</time>
      </trkpt>
      <trkpt lat="45.68857" lon="3.29949">
        <ele>502</ele>
        <time>2021-09-10T20:28:07Z</time>
      </trkpt>
      <trkpt lat="45.68816" lon="3.29955">
        <ele>507</ele>
        <time>2021-09-10T20:28:16Z</time>
      </trkpt>
      <trkpt lat="45.68816" lon="3.2999">
        <ele>506</ele>
        <time>2021-09-10T20:28:22Z</time>
      </trkpt>
      <trkpt lat="45.68838" lon="3.30026">
        <ele>503</ele>
        <time>2021-09-10T20:28:30Z</time>
      </trkpt>
      <trkpt lat="45.68858" lon="3.30104">
        <ele>501</ele>
        <time>2021-09-10T20:28:44Z</time>
      </trkpt>
      <trkpt lat="45.68868" lon="3.30181">
        <ele>500</ele>
        <time>2021-09-10T20:28:56Z</time>
      </trkpt>
      <trkpt lat="45.68872" lon="3.30293">
        <ele>500</ele>
        <time>2021-09-10T20:29:15Z</time>
      </trkpt>
      <trkpt lat="45.68825" lon="3.30289">
        <ele>504</ele>
        <time>2021-09-10T20:29:26Z</time>
      </trkpt>
      <trkpt lat="45.68766" lon="3.30298">
        <ele>511</ele>
        <time>2021-09-10T20:29:39Z</time>
      </trkpt>
      <trkpt lat="45.68696" lon="3.3038">
        <ele>517</ele>
        <time>2021-09-10T20:30:01Z</time>
      </trkpt>
      <trkpt lat="45.68668" lon="3.30418">
        <ele>520</ele>
        <time>2021-09-10T20:30:10Z</time>
      </trkpt>
      <trkpt lat="45.68645" lon="3.30485">
        <ele>514</ele>
        <time>2021-09-10T20:30:22Z</time>
      </trkpt>
      <trkpt lat="45.68626" lon="3.30565">
        <ele>513</ele>
        <time>2021-09-10T20:30:36Z</time>
      </trkpt>
      <trkpt lat="45.68633" lon="3.30619">
        <ele>511</ele>
        <time>2021-09-10T20:30:45Z</time>
      </trkpt>
      <trkpt lat="45.68655" lon="3.30639">
        <ele>508</ele>
        <time>2021-09-10T20:30:51Z</time>
      </trkpt>
      <trkpt lat="45.68686" lon="3.30675">
        <ele>504</ele>
        <time>2021-09-10T20:31:00Z</time>
      </trkpt>
      <trkpt lat="45.68664" lon="3.30778">
        <ele>504</ele>
        <time>2021-09-10T20:31:18Z</time>
      </trkpt>
      <trkpt lat="45.68701" lon="3.30794">
        <ele>499</ele>
        <time>2021-09-10T20:31:27Z</time>
      </trkpt>
      <trkpt lat="45.68762" lon="3.30795">
        <ele>491</ele>
        <time>2021-09-10T20:31:41Z</time>
      </trkpt>
      <trkpt lat="45.68786" lon="3.30808">
        <ele>488</ele>
        <time>2021-09-10T20:31:47Z</time>
      </trkpt>
      <trkpt lat="45.68811" lon="3.30847">
        <ele>486</ele>
        <time>2021-09-10T20:31:55Z</time>
      </trkpt>
      <trkpt lat="45.68837" lon="3.30899">
        <ele>481</ele>
        <time>2021-09-10T20:32:06Z</time>
      </trkpt>
      <trkpt lat="45.68731" lon="3.30916">
        <ele>489</ele>
        <time>2021-09-10T20:32:31Z</time>
      </trkpt>
      <trkpt lat="45.68634" lon="3.31011">
        <ele>495</ele>
        <time>2021-09-10T20:32:58Z</time>
      </trkpt>
      <trkpt lat="45.68586" lon="3.31113">
        <ele>499</ele>
        <time>2021-09-10T20:33:18Z</time>
      </trkpt>
      <trkpt lat="45.68543" lon="3.31144">
        <ele>499</ele>
        <time>2021-09-10T20:33:30Z</time>
      </trkpt>
      <trkpt lat="45.68546" lon="3.31234">
        <ele>491</ele>
        <time>2021-09-10T20:33:44Z</time>
      </trkpt>
      <trkpt lat="45.68503" lon="3.31288">
        <ele>491</ele>
        <time>2021-09-10T20:33:58Z</time>
      </trkpt>
      <trkpt lat="45.6842" lon="3.31325">
        <ele>497</ele>
        <time>2021-09-10T20:34:18Z</time>
      </trkpt>
      <trkpt lat="45.68356" lon="3.31388">
        <ele>500</ele>
        <time>2021-09-10T20:34:36Z</time>
      </trkpt>
      <trkpt lat="45.68313" lon="3.31439">
        <ele>502</ele>
        <time>2021-09-10T20:34:49Z</time>
      </trkpt>
      <trkpt lat="45.68317" lon="3.31484">
        <ele>501</ele>
        <time>2021-09-10T20:34:56Z</time>
      </trkpt>
      <trkpt lat="45.68326" lon="3.31535">
        <ele>503</ele>
        <time>2021-09-10T20:35:05Z</time>
      </trkpt>
      <trkpt lat="45.68361" lon="3.31565">
        <ele>505</ele>
        <time>2021-09-10T20:35:15Z</time>
      </trkpt>
      <trkpt lat="45.68381" lon="3.31613">
        <ele>509</ele>
        <time>2021-09-10T20:35:24Z</time>
      </trkpt>
      <trkpt lat="45.68376" lon="3.3168">
        <ele>516</ele>
        <time>2021-09-10T20:35:35Z</time>
      </trkpt>
      <trkpt lat="45.68362" lon="3.31719">
        <ele>523</ele>
        <time>2021-09-10T20:35:42Z</time>
      </trkpt>
      <trkpt lat="45.68311" lon="3.31724">
        <ele>525</ele>
        <time>2021-09-10T20:35:54Z</time>
      </trkpt>
      <trkpt lat="45.68268" lon="3.31672">
        <ele>517</ele>
        <time>2021-09-10T20:36:07Z</time>
      </trkpt>
      <trkpt lat="45.68251" lon="3.31604">
        <ele>512</ele>
        <time>2021-09-10T20:36:19Z</time>
      </trkpt>
      <trkpt lat="45.6817" lon="3.31577">
        <ele>514</ele>
        <time>2021-09-10T20:36:38Z</time>
      </trkpt>
      <trkpt lat="45.68141" lon="3.31522">
        <ele>511</ele>
        <time>2021-09-10T20:36:49Z</time>
      </trkpt>
      <trkpt lat="45.68062" lon="3.31559">
        <ele>518</ele>
        <time>2021-09-10T20:37:09Z</time>
      </trkpt>
      <trkpt lat="45.68059" lon="3.3163">
        <ele>523</ele>
        <time>2021-09-10T20:37:20Z</time>
      </trkpt>
      <trkpt lat="45.68034" lon="3.31674">
        <ele>530</ele>
        <time>2021-09-10T20:37:30Z</time>
      </trkpt>
      <trkpt lat="45.67978" lon="3.31699">
        <ele>537</ele>
        <time>2021-09-10T20:37:43Z</time>
      </trkpt>
      <trkpt lat="45.67919" lon="3.31743">
        <ele>544</ele>
        <time>2021-09-10T20:37:59Z</time>
      </trkpt>
      <trkpt lat="45.67882" lon="3.31813">
        <ele>555</ele>
        <time>2021-09-10T20:38:13Z</time>
      </trkpt>
      <trkpt lat="45.67797" lon="3.31795">
        <ele>563</ele>
        <time>2021-09-10T20:38:33Z</time>
      </trkpt>
      <trkpt lat="45.67756" lon="3.3183">
        <ele>567</ele>
        <time>2021-09-10T20:38:44Z</time>
      </trkpt>
      <trkpt lat="45.67754" lon="3.31875">
        <ele>567</ele>
        <time>2021-09-10T20:38:52Z</time>
      </trkpt>
      <trkpt lat="45.67762" lon="3.3192">
        <ele>568</ele>
        <time>2021-09-10T20:38:59Z</time>
      </trkpt>
      <trkpt lat="45.67744" lon="3.31916">
        <ele>569</ele>
        <time>2021-09-10T20:39:04Z</time>
      </trkpt>
      <trkpt lat="45.6764" lon="3.3197">
        <ele>585</ele>
        <time>2021-09-10T20:39:29Z</time>
      </trkpt>
      <trkpt lat="45.67565" lon="3.32047">
        <ele>600</ele>
        <time>2021-09-10T20:39:51Z</time>
      </trkpt>
      <trkpt lat="45.67452" lon="3.32142">
        <ele>621</ele>
        <time>2021-09-10T20:40:22Z</time>
      </trkpt>
      <trkpt lat="45.6733" lon="3.32268">
        <ele>632</ele>
        <time>2021-09-10T20:40:57Z</time>
      </trkpt>
      <trkpt lat="45.67216" lon="3.32303">
        <ele>638</ele>
        <time>2021-09-10T20:41:24Z</time>
      </trkpt>
      <trkpt lat="45.67095" lon="3.32373">
        <ele>645</ele>
        <time>2021-09-10T20:41:54Z</time>
      </trkpt>
      <trkpt lat="45.66953" lon="3.32364">
        <ele>649</ele>
        <time>2021-09-10T20:42:28Z</time>
      </trkpt>
      <trkpt lat="45.66755" lon="3.32418">
        <ele>684</ele>
        <time>2021-09-10T20:43:15Z</time>
      </trkpt>
      <trkpt lat="45.6671" lon="3.32405">
        <ele>692</ele>
        <time>2021-09-10T20:43:25Z</time>
      </trkpt>
      <trkpt lat="45.6669" lon="3.32306">
        <ele>706</ele>
        <time>2021-09-10T20:43:42Z</time>
      </trkpt>
      <trkpt lat="45.66707" lon="3.32243">
        <ele>703</ele>
        <time>2021-09-10T20:43:53Z</time>
      </trkpt>
      <trkpt lat="45.66591" lon="3.32187">
        <ele>707</ele>
        <time>2021-09-10T20:44:22Z</time>
      </trkpt>
      <trkpt lat="45.66528" lon="3.32135">
        <ele>707</ele>
        <time>2021-09-10T20:44:39Z</time>
      </trkpt>
      <trkpt lat="45.6648" lon="3.32069">
        <ele>703</ele>
        <time>2021-09-10T20:44:54Z</time>
      </trkpt>
      <trkpt lat="45.66339" lon="3.31996">
        <ele>698</ele>
        <time>2021-09-10T20:45:29Z</time>
      </trkpt>
      <trkpt lat="45.66303" lon="3.32005">
        <ele>695</ele>
        <time>2021-09-10T20:45:38Z</time>
      </trkpt>
      <trkpt lat="45.66259" lon="3.32081">
        <ele>696</ele>
        <time>2021-09-10T20:45:54Z</time>
      </trkpt>
      <trkpt lat="45.66127" lon="3.32339">
        <ele>697</ele>
        <time>2021-09-10T20:46:46Z</time>
      </trkpt>
      <trkpt lat="45.66097" lon="3.32454">
        <ele>699</ele>
        <time>2021-09-10T20:47:06Z</time>
      </trkpt>
      <trkpt lat="45.66072" lon="3.32583">
        <ele>699</ele>
        <time>2021-09-10T20:47:28Z</time>
      </trkpt>
      <trkpt lat="45.66164" lon="3.32867">
        <ele>694</ele>
        <time>2021-09-10T20:48:19Z</time>
      </trkpt>
      <trkpt lat="45.66132" lon="3.32912">
        <ele>690</ele>
        <time>2021-09-10T20:48:30Z</time>
      </trkpt>
      <trkpt lat="45.66091" lon="3.32917">
        <ele>686</ele>
        <time>2021-09-10T20:48:39Z</time>
      </trkpt>
      <trkpt lat="45.66084" lon="3.32971">
        <ele>682</ele>
        <time>2021-09-10T20:48:48Z</time>
      </trkpt>
      <trkpt lat="45.66104" lon="3.33052">
        <ele>679</ele>
        <time>2021-09-10T20:49:02Z</time>
      </trkpt>
      <trkpt lat="45.66178" lon="3.33193">
        <ele>684</ele>
        <time>2021-09-10T20:49:31Z</time>
      </trkpt>
      <trkpt lat="45.66167" lon="3.33287">
        <ele>682</ele>
        <time>2021-09-10T20:49:47Z</time>
      </trkpt>
      <trkpt lat="45.66132" lon="3.33337">
        <ele>678</ele>
        <time>2021-09-10T20:49:58Z</time>
      </trkpt>
      <trkpt lat="45.6611" lon="3.33416">
        <ele>680</ele>
        <time>2021-09-10T20:50:12Z</time>
      </trkpt>
      <trkpt lat="45.66138" lon="3.33514">
        <ele>684</ele>
        <time>2021-09-10T20:50:29Z</time>
      </trkpt>
      <trkpt lat="45.66205" lon="3.33622">
        <ele>690</ele>
        <time>2021-09-10T20:50:53Z</time>
      </trkpt>
      <trkpt lat="45.66258" lon="3.33803">
        <ele>692</ele>
        <time>2021-09-10T20:51:25Z</time>
      </trkpt>
      <trkpt lat="45.66315" lon="3.33862">
        <ele>690</ele>
        <time>2021-09-10T20:51:41Z</time>
      </trkpt>
      <trkpt lat="45.6646" lon="3.33891">
        <ele>679</ele>
        <time>2021-09-10T20:52:16Z</time>
      </trkpt>
      <trkpt lat="45.66506" lon="3.3385">
        <ele>676</ele>
        <time>2021-09-10T20:52:28Z</time>
      </trkpt>
      <trkpt lat="45.66583" lon="3.33865">
        <ele>670</ele>
        <time>2021-09-10T20:52:46Z</time>
      </trkpt>
      <trkpt lat="45.66614" lon="3.33947">
        <ele>664</ele>
        <time>2021-09-10T20:53:02Z</time>
      </trkpt>
      <trkpt lat="45.66719" lon="3.34003">
        <ele>645</ele>
        <time>2021-09-10T20:53:28Z</time>
      </trkpt>
      <trkpt lat="45.66721" lon="3.34056">
        <ele>639</ele>
        <time>2021-09-10T20:53:36Z</time>
      </trkpt>
      <trkpt lat="45.66646" lon="3.34209">
        <ele>621</ele>
        <time>2021-09-10T20:54:07Z</time>
      </trkpt>
      <trkpt lat="45.66593" lon="3.3439">
        <ele>603</ele>
        <time>2021-09-10T20:54:39Z</time>
      </trkpt>
      <trkpt lat="45.666" lon="3.34544">
        <ele>589</ele>
        <time>2021-09-10T20:55:04Z</time>
      </trkpt>
      <trkpt lat="45.66488" lon="3.34611">
        <ele>583</ele>
        <time>2021-09-10T20:55:32Z</time>
      </trkpt>
      <trkpt lat="45.66427" lon="3.34713">
        <ele>574</ele>
        <time>2021-09-10T20:55:54Z</time>
      </trkpt>
      <trkpt lat="45.66247" lon="3.34718">
        <ele>564</ele>
        <time>2021-09-10T20:56:36Z</time>
      </trkpt>
      <trkpt lat="45.66151" lon="3.34919">
        <ele>553</ele>
        <time>2021-09-10T20:57:16Z</time>
      </trkpt>
      <trkpt lat="45.65921" lon="3.35235">
        <ele>564</ele>
        <time>2021-09-10T20:58:31Z</time>
      </trkpt>
      <trkpt lat="45.65855" lon="3.35239">
        <ele>567</ele>
        <time>2021-09-10T20:58:46Z</time>
      </trkpt>
      <trkpt lat="45.65824" lon="3.35294">
        <ele>569</ele>
        <time>2021-09-10T20:58:58Z</time>
      </trkpt>
      <trkpt lat="45.65756" lon="3.35402">
        <ele>572</ele>
        <time>2021-09-10T20:59:21Z</time>
      </trkpt>
      <trkpt lat="45.65745" lon="3.35467">
        <ele>574</ele>
        <time>2021-09-10T20:59:32Z</time>
      </trkpt>
      <trkpt lat="45.65736" lon="3.35566">
        <ele>583</ele>
        <time>2021-09-10T20:59:49Z</time>
      </trkpt>
      <trkpt lat="45.65885" lon="3.35816">
        <ele>595</ele>
        <time>2021-09-10T21:00:42Z</time>
      </trkpt>
      <trkpt lat="45.65932" lon="3.35843">
        <ele>594</ele>
        <time>2021-09-10T21:00:54Z</time>
      </trkpt>
      <trkpt lat="45.65965" lon="3.35889">
        <ele>594</ele>
        <time>2021-09-10T21:01:05Z</time>
      </trkpt>
      <trkpt lat="45.6597" lon="3.35933">
        <ele>595</ele>
        <time>2021-09-10T21:01:12Z</time>
      </trkpt>
      <trkpt lat="45.66018" lon="3.36076">
        <ele>603</ele>
        <time>2021-09-10T21:01:38Z</time>
      </trkpt>
      <trkpt lat="45.66037" lon="3.36152">
        <ele>604</ele>
        <time>2021-09-10T21:01:51Z</time>
      </trkpt>
      <trkpt lat="45.6604" lon="3.36237">
        <ele>603</ele>
        <time>2021-09-10T21:02:05Z</time>
      </trkpt>
      <trkpt lat="45.66064" lon="3.36357">
        <ele>605</ele>
        <time>2021-09-10T21:02:25Z</time>
      </trkpt>
      <trkpt lat="45.66091" lon="3.36381">
        <ele>605</ele>
        <time>2021-09-10T21:02:33Z</time>
      </trkpt>
      <trkpt lat="45.66132" lon="3.36466">
        <ele>610</ele>
        <time>2021-09-10T21:02:50Z</time>
      </trkpt>
      <trkpt lat="45.66124" lon="3.36527">
        <ele>614</ele>
        <time>2021-09-10T21:03:00Z</time>
      </trkpt>
      <trkpt lat="45.66095" lon="3.36586">
        <ele>616</ele>
        <time>2021-09-10T21:03:12Z</time>
      </trkpt>
      <trkpt lat="45.66067" lon="3.36691">
        <ele>624</ele>
        <time>2021-09-10T21:03:30Z</time>
      </trkpt>
      <trkpt lat="45.66044" lon="3.36718">
        <ele>628</ele>
        <time>2021-09-10T21:03:37Z</time>
      </trkpt>
      <trkpt lat="45.66014" lon="3.3679">
        <ele>636</ele>
        <time>2021-09-10T21:03:50Z</time>
      </trkpt>
      <trkpt lat="45.65982" lon="3.36856">
        <ele>640</ele>
        <time>2021-09-10T21:04:04Z</time>
      </trkpt>
      <trkpt lat="45.65991" lon="3.36925">
        <ele>645</ele>
        <time>2021-09-10T21:04:15Z</time>
      </trkpt>
      <trkpt lat="45.6596" lon="3.37005">
        <ele>654</ele>
        <time>2021-09-10T21:04:30Z</time>
      </trkpt>
      <trkpt lat="45.65948" lon="3.37073">
        <ele>659</ele>
        <time>2021-09-10T21:04:41Z</time>
      </trkpt>
      <trkpt lat="45.65932" lon="3.37108">
        <ele>661</ele>
        <time>2021-09-10T21:04:48Z</time>
      </trkpt>
      <trkpt lat="45.65942" lon="3.37177">
        <ele>662</ele>
        <time>2021-09-10T21:05:00Z</time>
      </trkpt>
      <trkpt lat="45.65907" lon="3.37222">
        <ele>662</ele>
        <time>2021-09-10T21:05:11Z</time>
      </trkpt>
      <trkpt lat="45.65833" lon="3.37266">
        <ele>661</ele>
        <time>2021-09-10T21:05:29Z</time>
      </trkpt>
      <trkpt lat="45.65769" lon="3.37313">
        <ele>662</ele>
        <time>2021-09-10T21:05:46Z</time>
      </trkpt>
      <trkpt lat="45.65724" lon="3.37319">
        <ele>664</ele>
        <time>2021-09-10T21:05:57Z</time>
      </trkpt>
      <trkpt lat="45.65664" lon="3.37353">
        <ele>666</ele>
        <time>2021-09-10T21:06:12Z</time>
      </trkpt>
      <trkpt lat="45.65654" lon="3.37368">
        <ele>667</ele>
        <time>2021-09-10T21:06:15Z</time>
      </trkpt>
      <trkpt lat="45.65648" lon="3.37385">
        <ele>667</ele>
        <time>2021-09-10T21:06:18Z</time>
      </trkpt>
      <trkpt lat="45.65632" lon="3.37404">
        <ele>669</ele>
        <time>2021-09-10T21:06:23Z</time>
      </trkpt>
      <trkpt lat="45.65596" lon="3.37409">
        <ele>672</ele>
        <time>2021-09-10T21:06:32Z</time>
      </trkpt>
      <trkpt lat="45.65532" lon="3.37425">
        <ele>674</ele>
        <time>2021-09-10T21:06:47Z</time>
      </trkpt>
      <trkpt lat="45.65465" lon="3.37431">
        <ele>675</ele>
        <time>2021-09-10T21:07:03Z</time>
      </trkpt>
      <trkpt lat="45.65414" lon="3.37439">
        <ele>673</ele>
        <time>2021-09-10T21:07:15Z</time>
      </trkpt>
      <trkpt lat="45.65382" lon="3.37448">
        <ele>672</ele>
        <time>2021-09-10T21:07:22Z</time>
      </trkpt>
      <trkpt lat="45.65326" lon="3.37473">
        <ele>670</ele>
        <time>2021-09-10T21:07:36Z</time>
      </trkpt>
      <trkpt lat="45.65318" lon="3.37496">
        <ele>669</ele>
        <time>2021-09-10T21:07:40Z</time>
      </trkpt>
      <trkpt lat="45.65306" lon="3.37618">
        <ele>669</ele>
        <time>2021-09-10T21:08:00Z</time>
      </trkpt>
      <trkpt lat="45.65305" lon="3.37684">
        <ele>670</ele>
        <time>2021-09-10T21:08:11Z</time>
      </trkpt>
      <trkpt lat="45.65349" lon="3.37752">
        <ele>674</ele>
        <time>2021-09-10T21:08:26Z</time>
      </trkpt>
      <trkpt lat="45.65406" lon="3.37816">
        <ele>680</ele>
        <time>2021-09-10T21:08:43Z</time>
      </trkpt>
      <trkpt lat="45.6543" lon="3.37851">
        <ele>682</ele>
        <time>2021-09-10T21:08:51Z</time>
      </trkpt>
      <trkpt lat="45.65442" lon="3.37885">
        <ele>684</ele>
        <time>2021-09-10T21:08:57Z</time>
      </trkpt>
      <trkpt lat="45.65449" lon="3.37935">
        <ele>687</ele>
        <time>2021-09-10T21:09:05Z</time>
      </trkpt>
      <trkpt lat="45.65451" lon="3.37979">
        <ele>688</ele>
        <time>2021-09-10T21:09:13Z</time>
      </trkpt>
      <trkpt lat="45.65458" lon="3.38036">
        <ele>687</ele>
        <time>2021-09-10T21:09:22Z</time>
      </trkpt>
      <trkpt lat="45.65425" lon="3.38211">
        <ele>686</ele>
        <time>2021-09-10T21:09:52Z</time>
      </trkpt>
      <trkpt lat="45.65417" lon="3.38287">
        <ele>683</ele>
        <time>2021-09-10T21:10:04Z</time>
      </trkpt>
      <trkpt lat="45.6542" lon="3.38344">
        <ele>682</ele>
        <time>2021-09-10T21:10:14Z</time>
      </trkpt>
      <trkpt lat="45.6539" lon="3.38423">
        <ele>681</ele>
        <time>2021-09-10T21:10:28Z</time>
      </trkpt>
      <trkpt lat="45.65365" lon="3.38506">
        <ele>682</ele>
        <time>2021-09-10T21:10:43Z</time>
      </trkpt>
      <trkpt lat="45.65338" lon="3.38583">
        <ele>684</ele>
        <time>2021-09-10T21:10:57Z</time>
      </trkpt>
      <trkpt lat="45.65311" lon="3.38643">
        <ele>684</ele>
        <time>2021-09-10T21:11:09Z</time>
      </trkpt>
      <trkpt lat="45.65304" lon="3.3865">
        <ele>684</ele>
        <time>2021-09-10T21:11:11Z</time>
      </trkpt>
      <trkpt lat="45.65287" lon="3.38639">
        <ele>685</ele>
        <time>2021-09-10T21:11:15Z</time>
      </trkpt>
      <trkpt lat="45.65271" lon="3.38609">
        <ele>684</ele>
        <time>2021-09-10T21:11:21Z</time>
      </trkpt>
      <trkpt lat="45.65249" lon="3.38598">
        <ele>683</ele>
        <time>2021-09-10T21:11:27Z</time>
      </trkpt>
      <trkpt lat="45.6523" lon="3.38631">
        <ele>683</ele>
        <time>2021-09-10T21:11:34Z</time>
      </trkpt>
      <trkpt lat="45.6523" lon="3.38672">
        <ele>685</ele>
        <time>2021-09-10T21:11:40Z</time>
      </trkpt>
      <trkpt lat="45.65224" lon="3.38738">
        <ele>686</ele>
        <time>2021-09-10T21:11:51Z</time>
      </trkpt>
      <trkpt lat="45.65222" lon="3.38891">
        <ele>680</ele>
        <time>2021-09-10T21:12:16Z</time>
      </trkpt>
      <trkpt lat="45.65159" lon="3.38969">
        <ele>672</ele>
        <time>2021-09-10T21:12:36Z</time>
      </trkpt>
      <trkpt lat="45.65158" lon="3.39011">
        <ele>669</ele>
        <time>2021-09-10T21:12:43Z</time>
      </trkpt>
      <trkpt lat="45.65214" lon="3.39131">
        <ele>655</ele>
        <time>2021-09-10T21:13:06Z</time>
      </trkpt>
      <trkpt lat="45.65228" lon="3.39286">
        <ele>647</ele>
        <time>2021-09-10T21:13:32Z</time>
      </trkpt>
      <trkpt lat="45.65213" lon="3.39327">
        <ele>647</ele>
        <time>2021-09-10T21:13:39Z</time>
      </trkpt>
      <trkpt lat="45.65113" lon="3.3942">
        <ele>659</ele>
        <time>2021-09-10T21:14:07Z</time>
      </trkpt>
      <trkpt lat="45.65133" lon="3.3946">
        <ele>666</ele>
        <time>2021-09-10T21:14:15Z</time>
      </trkpt>
      <trkpt lat="45.65165" lon="3.39595">
        <ele>682</ele>
        <time>2021-09-10T21:14:38Z</time>
      </trkpt>
      <trkpt lat="45.6514" lon="3.39962">
        <ele>713</ele>
        <time>2021-09-10T21:15:38Z</time>
      </trkpt>
      <trkpt lat="45.65156" lon="3.40157">
        <ele>707</ele>
        <time>2021-09-10T21:16:11Z</time>
      </trkpt>
      <trkpt lat="45.65216" lon="3.40314">
        <ele>692</ele>
        <time>2021-09-10T21:16:40Z</time>
      </trkpt>
      <trkpt lat="45.65246" lon="3.405">
        <ele>673</ele>
        <time>2021-09-10T21:17:11Z</time>
      </trkpt>
      <trkpt lat="45.65318" lon="3.40675">
        <ele>670</ele>
        <time>2021-09-10T21:17:44Z</time>
      </trkpt>
      <trkpt lat="45.65333" lon="3.40797">
        <ele>674</ele>
        <time>2021-09-10T21:18:04Z</time>
      </trkpt>
      <trkpt lat="45.65178" lon="3.4072">
        <ele>671</ele>
        <time>2021-09-10T21:18:43Z</time>
      </trkpt>
      <trkpt lat="45.65085" lon="3.40565">
        <ele>672</ele>
        <time>2021-09-10T21:19:16Z</time>
      </trkpt>
      <trkpt lat="45.65014" lon="3.40504">
        <ele>683</ele>
        <time>2021-09-10T21:19:35Z</time>
      </trkpt>
      <trkpt lat="45.64825" lon="3.40488">
        <ele>696</ele>
        <time>2021-09-10T21:20:20Z</time>
      </trkpt>
      <trkpt lat="45.64646" lon="3.40506">
        <ele>692</ele>
        <time>2021-09-10T21:21:01Z</time>
      </trkpt>
      <trkpt lat="45.64527" lon="3.4046">
        <ele>690</ele>
        <time>2021-09-10T21:21:30Z</time>
      </trkpt>
      <trkpt lat="45.64388" lon="3.40325">
        <ele>687</ele>
        <time>2021-09-10T21:22:09Z</time>
      </trkpt>
      <trkpt lat="45.64276" lon="3.40313">
        <ele>676</ele>
        <time>2021-09-10T21:22:36Z</time>
      </trkpt>
      <trkpt lat="45.64194" lon="3.40334">
        <ele>663</ele>
        <time>2021-09-10T21:22:55Z</time>
      </trkpt>
      <trkpt lat="45.64176" lon="3.40226">
        <ele>663</ele>
        <time>2021-09-10T21:23:13Z</time>
      </trkpt>
      <trkpt lat="45.64075" lon="3.4015">
        <ele>649</ele>
        <time>2021-09-10T21:23:40Z</time>
      </trkpt>
      <trkpt lat="45.64049" lon="3.40096">
        <ele>646</ele>
        <time>2021-09-10T21:23:51Z</time>
      </trkpt>
      <trkpt lat="45.63997" lon="3.40099">
        <ele>643</ele>
        <time>2021-09-10T21:24:03Z</time>
      </trkpt>
      <trkpt lat="45.63945" lon="3.40112">
        <ele>639</ele>
        <time>2021-09-10T21:24:15Z</time>
      </trkpt>
      <trkpt lat="45.63904" lon="3.40116">
        <ele>636</ele>
        <time>2021-09-10T21:24:25Z</time>
      </trkpt>
      <trkpt lat="45.63869" lon="3.40084">
        <ele>633</ele>
        <time>2021-09-10T21:24:34Z</time>
      </trkpt>
      <trkpt lat="45.63859" lon="3.40037">
        <ele>633</ele>
        <time>2021-09-10T21:24:42Z</time>
      </trkpt>
      <trkpt lat="45.6383" lon="3.39989">
        <ele>630</ele>
        <time>2021-09-10T21:24:53Z</time>
      </trkpt>
      <trkpt lat="45.63714" lon="3.3989">
        <ele>622</ele>
        <time>2021-09-10T21:25:24Z</time>
      </trkpt>
      <trkpt lat="45.63661" lon="3.39859">
        <ele>621</ele>
        <time>2021-09-10T21:25:38Z</time>
      </trkpt>
      <trkpt lat="45.63555" lon="3.39711">
        <ele>626</ele>
        <time>2021-09-10T21:26:12Z</time>
      </trkpt>
      <trkpt lat="45.6353" lon="3.39603">
        <ele>624</ele>
        <time>2021-09-10T21:26:31Z</time>
      </trkpt>
      <trkpt lat="45.63503" lon="3.39547">
        <ele>621</ele>
        <time>2021-09-10T21:26:42Z</time>
      </trkpt>
      <trkpt lat="45.63413" lon="3.39482">
        <ele>619</ele>
        <time>2021-09-10T21:27:06Z</time>
      </trkpt>
      <trkpt lat="45.63299" lon="3.39425">
        <ele>621</ele>
        <time>2021-09-10T21:27:34Z</time>
      </trkpt>
      <trkpt lat="45.63173" lon="3.39369">
        <ele>620</ele>
        <time>2021-09-10T21:28:05Z</time>
      </trkpt>
      <trkpt lat="45.63067" lon="3.39383">
        <ele>628</ele>
        <time>2021-09-10T21:28:29Z</time>
      </trkpt>
      <trkpt lat="45.62891" lon="3.39446">
        <ele>630</ele>
        <time>2021-09-10T21:29:12Z</time>
      </trkpt>
      <trkpt lat="45.62845" lon="3.39485">
        <ele>627</ele>
        <time>2021-09-10T21:29:24Z</time>
      </trkpt>
      <trkpt lat="45.6276" lon="3.39457">
        <ele>619</ele>
        <time>2021-09-10T21:29:45Z</time>
      </trkpt>
      <trkpt lat="45.62671" lon="3.39453">
        <ele>612</ele>
        <time>2021-09-10T21:30:05Z</time>
      </trkpt>
      <trkpt lat="45.62583" lon="3.3947">
        <ele>603</ele>
        <time>2021-09-10T21:30:26Z</time>
      </trkpt>
      <trkpt lat="45.62382" lon="3.39544">
        <ele>590</ele>
        <time>2021-09-10T21:31:15Z</time>
      </trkpt>
      <trkpt lat="45.6225" lon="3.39554">
        <ele>583</ele>
        <time>2021-09-10T21:31:45Z</time>
      </trkpt>
      <trkpt lat="45.62161" lon="3.39524">
        <ele>580</ele>
        <time>2021-09-10T21:32:07Z</time>
      </trkpt>
      <trkpt lat="45.62086" lon="3.39477">
        <ele>578</ele>
        <time>2021-09-10T21:32:26Z</time>
      </trkpt>
      <trkpt lat="45.62075" lon="3.39477">
        <ele>578</ele>
        <time>2021-09-10T21:32:29Z</time>
      </trkpt>
      <trkpt lat="45.62058" lon="3.39486">
        <ele>578</ele>
        <time>2021-09-10T21:32:33Z</time>
      </trkpt>
      <trkpt lat="45.62044" lon="3.39506">
        <ele>579</ele>
        <time>2021-09-10T21:32:37Z</time>
      </trkpt>
      <trkpt lat="45.62034" lon="3.39533">
        <ele>579</ele>
        <time>2021-09-10T21:32:42Z</time>
      </trkpt>
      <trkpt lat="45.6203" lon="3.39565">
        <ele>580</ele>
        <time>2021-09-10T21:32:48Z</time>
      </trkpt>
      <trkpt lat="45.62009" lon="3.39598">
        <ele>580</ele>
        <time>2021-09-10T21:32:55Z</time>
      </trkpt>
      <trkpt lat="45.61991" lon="3.39648">
        <ele>578</ele>
        <time>2021-09-10T21:33:04Z</time>
      </trkpt>
      <trkpt lat="45.6198" lon="3.3967">
        <ele>577</ele>
        <time>2021-09-10T21:33:09Z</time>
      </trkpt>
      <trkpt lat="45.61977" lon="3.39768">
        <ele>567</ele>
        <time>2021-09-10T21:33:25Z</time>
      </trkpt>
      <trkpt lat="45.61982" lon="3.39871">
        <ele>555</ele>
        <time>2021-09-10T21:33:41Z</time>
      </trkpt>
      <trkpt lat="45.61986" lon="3.3989">
        <ele>553</ele>
        <time>2021-09-10T21:33:45Z</time>
      </trkpt>
      <trkpt lat="45.62014" lon="3.39939">
        <ele>547</ele>
        <time>2021-09-10T21:33:55Z</time>
      </trkpt>
      <trkpt lat="45.62018" lon="3.39957">
        <ele>546</ele>
        <time>2021-09-10T21:33:58Z</time>
      </trkpt>
      <trkpt lat="45.62018" lon="3.39985">
        <ele>543</ele>
        <time>2021-09-10T21:34:03Z</time>
      </trkpt>
      <trkpt lat="45.6201" lon="3.40078">
        <ele>535</ele>
        <time>2021-09-10T21:34:18Z</time>
      </trkpt>
      <trkpt lat="45.62009" lon="3.40147">
        <ele>530</ele>
        <time>2021-09-10T21:34:29Z</time>
      </trkpt>
      <trkpt lat="45.62001" lon="3.40232">
        <ele>523</ele>
        <time>2021-09-10T21:34:43Z</time>
      </trkpt>
      <trkpt lat="45.61994" lon="3.40279">
        <ele>519</ele>
        <time>2021-09-10T21:34:51Z</time>
      </trkpt>
      <trkpt lat="45.61976" lon="3.40353">
        <ele>515</ele>
        <time>2021-09-10T21:35:04Z</time>
      </trkpt>
      <trkpt lat="45.61934" lon="3.40446">
        <ele>511</ele>
        <time>2021-09-10T21:35:22Z</time>
      </trkpt>
      <trkpt lat="45.61931" lon="3.40459">
        <ele>510</ele>
        <time>2021-09-10T21:35:24Z</time>
      </trkpt>
      <trkpt lat="45.6194" lon="3.40538">
        <ele>505</ele>
        <time>2021-09-10T21:35:37Z</time>
      </trkpt>
      <trkpt lat="45.61944" lon="3.40619">
        <ele>500</ele>
        <time>2021-09-10T21:35:51Z</time>
      </trkpt>
      <trkpt lat="45.61954" lon="3.40649">
        <ele>499</ele>
        <time>2021-09-10T21:35:56Z</time>
      </trkpt>
      <trkpt lat="45.61968" lon="3.4067">
        <ele>498</ele>
        <time>2021-09-10T21:36:01Z</time>
      </trkpt>
      <trkpt lat="45.62011" lon="3.40704">
        <ele>497</ele>
        <time>2021-09-10T21:36:12Z</time>
      </trkpt>
      <trkpt lat="45.62027" lon="3.40789">
        <ele>493</ele>
        <time>2021-09-10T21:36:27Z</time>
      </trkpt>
      <trkpt lat="45.62037" lon="3.40822">
        <ele>493</ele>
        <time>2021-09-10T21:36:32Z</time>
      </trkpt>
      <trkpt lat="45.62058" lon="3.40836">
        <ele>492</ele>
        <time>2021-09-10T21:36:38Z</time>
      </trkpt>
      <trkpt lat="45.6207" lon="3.40856">
        <ele>492</ele>
        <time>2021-09-10T21:36:42Z</time>
      </trkpt>
      <trkpt lat="45.6209" lon="3.40902">
        <ele>494</ele>
        <time>2021-09-10T21:36:51Z</time>
      </trkpt>
      <trkpt lat="45.62087" lon="3.40915">
        <ele>495</ele>
        <time>2021-09-10T21:36:53Z</time>
      </trkpt>
      <trkpt lat="45.62088" lon="3.40922">
        <ele>494</ele>
        <time>2021-09-10T21:36:54Z</time>
      </trkpt>
      <trkpt lat="45.62048" lon="3.41006">
        <ele>491</ele>
        <time>2021-09-10T21:37:11Z</time>
      </trkpt>
      <trkpt lat="45.62021" lon="3.41076">
        <ele>494</ele>
        <time>2021-09-10T21:37:24Z</time>
      </trkpt>
      <trkpt lat="45.62018" lon="3.41128">
        <ele>497</ele>
        <time>2021-09-10T21:37:33Z</time>
      </trkpt>
      <trkpt lat="45.61998" lon="3.41234">
        <ele>502</ele>
        <time>2021-09-10T21:37:51Z</time>
      </trkpt>
      <trkpt lat="45.61988" lon="3.41242">
        <ele>502</ele>
        <time>2021-09-10T21:37:53Z</time>
      </trkpt>
      <trkpt lat="45.61969" lon="3.41233">
        <ele>503</ele>
        <time>2021-09-10T21:37:58Z</time>
      </trkpt>
      <trkpt lat="45.61941" lon="3.41236">
        <ele>504</ele>
        <time>2021-09-10T21:38:04Z</time>
      </trkpt>
      <trkpt lat="45.61914" lon="3.41314">
        <ele>513</ele>
        <time>2021-09-10T21:38:19Z</time>
      </trkpt>
      <trkpt lat="45.6187" lon="3.41319">
        <ele>518</ele>
        <time>2021-09-10T21:38:29Z</time>
      </trkpt>
      <trkpt lat="45.61847" lon="3.41325">
        <ele>521</ele>
        <time>2021-09-10T21:38:34Z</time>
      </trkpt>
      <trkpt lat="45.61831" lon="3.41324">
        <ele>522</ele>
        <time>2021-09-10T21:38:38Z</time>
      </trkpt>
      <trkpt lat="45.61824" lon="3.4132">
        <ele>521</ele>
        <time>2021-09-10T21:38:40Z</time>
      </trkpt>
      <trkpt lat="45.61802" lon="3.41325">
        <ele>522</ele>
        <time>2021-09-10T21:38:45Z</time>
      </trkpt>
      <trkpt lat="45.61745" lon="3.41353">
        <ele>526</ele>
        <time>2021-09-10T21:38:59Z</time>
      </trkpt>
      <trkpt lat="45.61677" lon="3.41378">
        <ele>527</ele>
        <time>2021-09-10T21:39:16Z</time>
      </trkpt>
      <trkpt lat="45.6164" lon="3.41407">
        <ele>529</ele>
        <time>2021-09-10T21:39:25Z</time>
      </trkpt>
      <trkpt lat="45.61619" lon="3.41435">
        <ele>531</ele>
        <time>2021-09-10T21:39:32Z</time>
      </trkpt>
      <trkpt lat="45.61568" lon="3.41466">
        <ele>532</ele>
        <time>2021-09-10T21:39:45Z</time>
      </trkpt>
      <trkpt lat="45.61518" lon="3.41535">
        <ele>540</ele>
        <time>2021-09-10T21:40:01Z</time>
      </trkpt>
      <trkpt lat="45.61483" lon="3.41576">
        <ele>545</ele>
        <time>2021-09-10T21:40:12Z</time>
      </trkpt>
      <trkpt lat="45.61457" lon="3.41601">
        <ele>549</ele>
        <time>2021-09-10T21:40:19Z</time>
      </trkpt>
      <trkpt lat="45.61444" lon="3.41609">
        <ele>550</ele>
        <time>2021-09-10T21:40:23Z</time>
      </trkpt>
      <trkpt lat="45.61424" lon="3.41637">
        <ele>553</ele>
        <time>2021-09-10T21:40:29Z</time>
      </trkpt>
      <trkpt lat="45.61409" lon="3.41668">
        <ele>556</ele>
        <time>2021-09-10T21:40:35Z</time>
      </trkpt>
      <trkpt lat="45.6138" lon="3.41701">
        <ele>562</ele>
        <time>2021-09-10T21:40:44Z</time>
      </trkpt>
      <trkpt lat="45.61313" lon="3.41708">
        <ele>561</ele>
        <time>2021-09-10T21:41:00Z</time>
      </trkpt>
      <trkpt lat="45.61291" lon="3.41694">
        <ele>558</ele>
        <time>2021-09-10T21:41:05Z</time>
      </trkpt>
      <trkpt lat="45.61277" lon="3.41694">
        <ele>558</ele>
        <time>2021-09-10T21:41:08Z</time>
      </trkpt>
      <trkpt lat="45.6125" lon="3.41734">
        <ele>564</ele>
        <time>2021-09-10T21:41:18Z</time>
      </trkpt>
      <trkpt lat="45.61228" lon="3.41787">
        <ele>575</ele>
        <time>2021-09-10T21:41:28Z</time>
      </trkpt>
      <trkpt lat="45.61201" lon="3.41802">
        <ele>577</ele>
        <time>2021-09-10T21:41:34Z</time>
      </trkpt>
      <trkpt lat="45.61161" lon="3.41812">
        <ele>577</ele>
        <time>2021-09-10T21:41:44Z</time>
      </trkpt>
      <trkpt lat="45.61117" lon="3.41838">
        <ele>585</ele>
        <time>2021-09-10T21:41:55Z</time>
      </trkpt>
      <trkpt lat="45.61099" lon="3.41841">
        <ele>586</ele>
        <time>2021-09-10T21:41:59Z</time>
      </trkpt>
      <trkpt lat="45.61082" lon="3.41837">
        <ele>586</ele>
        <time>2021-09-10T21:42:03Z</time>
      </trkpt>
      <trkpt lat="45.61053" lon="3.41845">
        <ele>587</ele>
        <time>2021-09-10T21:42:10Z</time>
      </trkpt>
      <trkpt lat="45.61039" lon="3.41869">
        <ele>588</ele>
        <time>2021-09-10T21:42:15Z</time>
      </trkpt>
      <trkpt lat="45.61028" lon="3.41911">
        <ele>591</ele>
        <time>2021-09-10T21:42:23Z</time>
      </trkpt>
      <trkpt lat="45.61042" lon="3.41928">
        <ele>594</ele>
        <time>2021-09-10T21:42:27Z</time>
      </trkpt>
      <trkpt lat="45.61058" lon="3.41971">
        <ele>599</ele>
        <time>2021-09-10T21:42:35Z</time>
      </trkpt>
      <trkpt lat="45.61074" lon="3.42033">
        <ele>606</ele>
        <time>2021-09-10T21:42:46Z</time>
      </trkpt>
      <trkpt lat="45.61076" lon="3.42058">
        <ele>608</ele>
        <time>2021-09-10T21:42:50Z</time>
      </trkpt>
      <trkpt lat="45.6109" lon="3.42121">
        <ele>613</ele>
        <time>2021-09-10T21:43:01Z</time>
      </trkpt>
      <trkpt lat="45.61125" lon="3.42156">
        <ele>620</ele>
        <time>2021-09-10T21:43:10Z</time>
      </trkpt>
      <trkpt lat="45.61162" lon="3.42187">
        <ele>628</ele>
        <time>2021-09-10T21:43:20Z</time>
      </trkpt>
      <trkpt lat="45.61174" lon="3.42205">
        <ele>630</ele>
        <time>2021-09-10T21:43:25Z</time>
      </trkpt>
      <trkpt lat="45.61181" lon="3.42208">
        <ele>630</ele>
        <time>2021-09-10T21:43:26Z</time>
      </trkpt>
      <trkpt lat="45.61189" lon="3.42219">
        <ele>631</ele>
        <time>2021-09-10T21:43:29Z</time>
      </trkpt>
      <trkpt lat="45.61212" lon="3.42237">
        <ele>634</ele>
        <time>2021-09-10T21:43:35Z</time>
      </trkpt>
      <trkpt lat="45.61281" lon="3.42249">
        <ele>638</ele>
        <time>2021-09-10T21:43:51Z</time>
      </trkpt>
      <trkpt lat="45.61321" lon="3.42263">
        <ele>640</ele>
        <time>2021-09-10T21:44:01Z</time>
      </trkpt>
      <trkpt lat="45.61347" lon="3.42294">
        <ele>640</ele>
        <time>2021-09-10T21:44:09Z</time>
      </trkpt>
      <trkpt lat="45.61352" lon="3.42304">
        <ele>640</ele>
        <time>2021-09-10T21:44:11Z</time>
      </trkpt>
      <trkpt lat="45.61355" lon="3.42303">
        <ele>640</ele>
        <time>2021-09-10T21:44:11Z</time>
      </trkpt>
      <trkpt lat="45.61388" lon="3.42402">
        <ele>639</ele>
        <time>2021-09-10T21:44:29Z</time>
      </trkpt>
      <trkpt lat="45.61395" lon="3.4248">
        <ele>641</ele>
        <time>2021-09-10T21:44:42Z</time>
      </trkpt>
      <trkpt lat="45.61422" lon="3.42546">
        <ele>643</ele>
        <time>2021-09-10T21:44:55Z</time>
      </trkpt>
      <trkpt lat="45.61457" lon="3.42608">
        <ele>646</ele>
        <time>2021-09-10T21:45:08Z</time>
      </trkpt>
      <trkpt lat="45.61492" lon="3.42626">
        <ele>649</ele>
        <time>2021-09-10T21:45:16Z</time>
      </trkpt>
      <trkpt lat="45.6152" lon="3.4262">
        <ele>652</ele>
        <time>2021-09-10T21:45:23Z</time>
      </trkpt>
      <trkpt lat="45.61599" lon="3.42585">
        <ele>656</ele>
        <time>2021-09-10T21:45:42Z</time>
      </trkpt>
      <trkpt lat="45.61628" lon="3.42583">
        <ele>658</ele>
        <time>2021-09-10T21:45:49Z</time>
      </trkpt>
      <trkpt lat="45.61684" lon="3.42611">
        <ele>664</ele>
        <time>2021-09-10T21:46:03Z</time>
      </trkpt>
      <trkpt lat="45.61715" lon="3.42633">
        <ele>666</ele>
        <time>2021-09-10T21:46:11Z</time>
      </trkpt>
      <trkpt lat="45.61744" lon="3.42662">
        <ele>668</ele>
        <time>2021-09-10T21:46:19Z</time>
      </trkpt>
      <trkpt lat="45.61826" lon="3.42801">
        <ele>666</ele>
        <time>2021-09-10T21:46:49Z</time>
      </trkpt>
      <trkpt lat="45.61845" lon="3.42838">
        <ele>667</ele>
        <time>2021-09-10T21:46:57Z</time>
      </trkpt>
      <trkpt lat="45.61889" lon="3.42962">
        <ele>669</ele>
        <time>2021-09-10T21:47:19Z</time>
      </trkpt>
      <trkpt lat="45.61899" lon="3.42997">
        <ele>671</ele>
        <time>2021-09-10T21:47:25Z</time>
      </trkpt>
      <trkpt lat="45.61905" lon="3.43046">
        <ele>674</ele>
        <time>2021-09-10T21:47:34Z</time>
      </trkpt>
      <trkpt lat="45.61901" lon="3.43121">
        <ele>675</ele>
        <time>2021-09-10T21:47:46Z</time>
      </trkpt>
      <trkpt lat="45.61916" lon="3.43181">
        <ele>680</ele>
        <time>2021-09-10T21:47:56Z</time>
      </trkpt>
      <trkpt lat="45.61919" lon="3.43227">
        <ele>680</ele>
        <time>2021-09-10T21:48:04Z</time>
      </trkpt>
      <trkpt lat="45.61934" lon="3.43273">
        <ele>684</ele>
        <time>2021-09-10T21:48:12Z</time>
      </trkpt>
      <trkpt lat="45.6195" lon="3.43336">
        <ele>688</ele>
        <time>2021-09-10T21:48:23Z</time>
      </trkpt>
      <trkpt lat="45.6196" lon="3.43394">
        <ele>690</ele>
        <time>2021-09-10T21:48:33Z</time>
      </trkpt>
      <trkpt lat="45.61966" lon="3.43526">
        <ele>691</ele>
        <time>2021-09-10T21:48:54Z</time>
      </trkpt>
      <trkpt lat="45.61965" lon="3.43604">
        <ele>692</ele>
        <time>2021-09-10T21:49:07Z</time>
      </trkpt>
      <trkpt lat="45.6193" lon="3.43701">
        <ele>687</ele>
        <time>2021-09-10T21:49:25Z</time>
      </trkpt>
      <trkpt lat="45.61926" lon="3.43752">
        <ele>687</ele>
        <time>2021-09-10T21:49:33Z</time>
      </trkpt>
      <trkpt lat="45.61921" lon="3.43761">
        <ele>687</ele>
        <time>2021-09-10T21:49:35Z</time>
      </trkpt>
      <trkpt lat="45.61914" lon="3.43766">
        <ele>686</ele>
        <time>2021-09-10T21:49:37Z</time>
      </trkpt>
      <trkpt lat="45.61894" lon="3.438">
        <ele>684</ele>
        <time>2021-09-10T21:49:44Z</time>
      </trkpt>
      <trkpt lat="45.6189" lon="3.43839">
        <ele>686</ele>
        <time>2021-09-10T21:49:51Z</time>
      </trkpt>
      <trkpt lat="45.61883" lon="3.43862">
        <ele>686</ele>
        <time>2021-09-10T21:49:55Z</time>
      </trkpt>
      <trkpt lat="45.61895" lon="3.43876">
        <ele>688</ele>
        <time>2021-09-10T21:49:58Z</time>
      </trkpt>
      <trkpt lat="45.61978" lon="3.43925">
        <ele>695</ele>
        <time>2021-09-10T21:50:19Z</time>
      </trkpt>
      <trkpt lat="45.62" lon="3.43957">
        <ele>696</ele>
        <time>2021-09-10T21:50:27Z</time>
      </trkpt>
      <trkpt lat="45.61968" lon="3.44038">
        <ele>695</ele>
        <time>2021-09-10T21:50:42Z</time>
      </trkpt>
      <trkpt lat="45.6198" lon="3.44058">
        <ele>696</ele>
        <time>2021-09-10T21:50:46Z</time>
      </trkpt>
      <trkpt lat="45.62015" lon="3.44093">
        <ele>697</ele>
        <time>2021-09-10T21:50:56Z</time>
      </trkpt>
      <trkpt lat="45.62035" lon="3.4412">
        <ele>697</ele>
        <time>2021-09-10T21:51:03Z</time>
      </trkpt>
      <trkpt lat="45.62058" lon="3.44194">
        <ele>697</ele>
        <time>2021-09-10T21:51:16Z</time>
      </trkpt>
      <trkpt lat="45.6206" lon="3.4422">
        <ele>699</ele>
        <time>2021-09-10T21:51:20Z</time>
      </trkpt>
      <trkpt lat="45.62076" lon="3.44285">
        <ele>701</ele>
        <time>2021-09-10T21:51:31Z</time>
      </trkpt>
      <trkpt lat="45.62101" lon="3.44338">
        <ele>700</ele>
        <time>2021-09-10T21:51:42Z</time>
      </trkpt>
      <trkpt lat="45.62107" lon="3.44364">
        <ele>702</ele>
        <time>2021-09-10T21:51:46Z</time>
      </trkpt>
      <trkpt lat="45.62113" lon="3.44409">
        <ele>706</ele>
        <time>2021-09-10T21:51:54Z</time>
      </trkpt>
      <trkpt lat="45.62114" lon="3.44475">
        <ele>712</ele>
        <time>2021-09-10T21:52:05Z</time>
      </trkpt>
      <trkpt lat="45.62129" lon="3.44523">
        <ele>711</ele>
        <time>2021-09-10T21:52:13Z</time>
      </trkpt>
      <trkpt lat="45.62164" lon="3.44567">
        <ele>704</ele>
        <time>2021-09-10T21:52:24Z</time>
      </trkpt>
      <trkpt lat="45.62177" lon="3.44601">
        <ele>702</ele>
        <time>2021-09-10T21:52:30Z</time>
      </trkpt>
      <trkpt lat="45.62192" lon="3.44665">
        <ele>697</ele>
        <time>2021-09-10T21:52:41Z</time>
      </trkpt>
      <trkpt lat="45.62204" lon="3.44695">
        <ele>691</ele>
        <time>2021-09-10T21:52:47Z</time>
      </trkpt>
      <trkpt lat="45.62213" lon="3.44709">
        <ele>688</ele>
        <time>2021-09-10T21:52:50Z</time>
      </trkpt>
      <trkpt lat="45.6221" lon="3.44762">
        <ele>684</ele>
        <time>2021-09-10T21:52:59Z</time>
      </trkpt>
      <trkpt lat="45.62187" lon="3.44792">
        <ele>686</ele>
        <time>2021-09-10T21:53:06Z</time>
      </trkpt>
      <trkpt lat="45.62182" lon="3.44803">
        <ele>686</ele>
        <time>2021-09-10T21:53:08Z</time>
      </trkpt>
      <trkpt lat="45.62177" lon="3.44826">
        <ele>685</ele>
        <time>2021-09-10T21:53:12Z</time>
      </trkpt>
      <trkpt lat="45.62174" lon="3.44859">
        <ele>684</ele>
        <time>2021-09-10T21:53:18Z</time>
      </trkpt>
      <trkpt lat="45.62188" lon="3.44884">
        <ele>680</ele>
        <time>2021-09-10T21:53:23Z</time>
      </trkpt>
      <trkpt lat="45.62224" lon="3.44928">
        <ele>673</ele>
        <time>2021-09-10T21:53:34Z</time>
      </trkpt>
      <trkpt lat="45.62234" lon="3.44948">
        <ele>671</ele>
        <time>2021-09-10T21:53:38Z</time>
      </trkpt>
      <trkpt lat="45.6224" lon="3.44961">
        <ele>670</ele>
        <time>2021-09-10T21:53:40Z</time>
      </trkpt>
      <trkpt lat="45.62246" lon="3.44987">
        <ele>669</ele>
        <time>2021-09-10T21:53:45Z</time>
      </trkpt>
      <trkpt lat="45.62249" lon="3.45014">
        <ele>667</ele>
        <time>2021-09-10T21:53:49Z</time>
      </trkpt>
      <trkpt lat="45.62287" lon="3.45086">
        <ele>655</ele>
        <time>2021-09-10T21:54:04Z</time>
      </trkpt>
      <trkpt lat="45.62328" lon="3.45179">
        <ele>641</ele>
        <time>2021-09-10T21:54:22Z</time>
      </trkpt>
      <trkpt lat="45.62338" lon="3.45194">
        <ele>639</ele>
        <time>2021-09-10T21:54:25Z</time>
      </trkpt>
      <trkpt lat="45.62353" lon="3.45165">
        <ele>638</ele>
        <time>2021-09-10T21:54:31Z</time>
      </trkpt>
      <trkpt lat="45.62348" lon="3.45089">
        <ele>643</ele>
        <time>2021-09-10T21:54:44Z</time>
      </trkpt>
      <trkpt lat="45.62328" lon="3.44996">
        <ele>649</ele>
        <time>2021-09-10T21:55:00Z</time>
      </trkpt>
      <trkpt lat="45.62339" lon="3.44864">
        <ele>645</ele>
        <time>2021-09-10T21:55:21Z</time>
      </trkpt>
      <trkpt lat="45.62397" lon="3.44911">
        <ele>640</ele>
        <time>2021-09-10T21:55:37Z</time>
      </trkpt>
      <trkpt lat="45.6245" lon="3.44925">
        <ele>641</ele>
        <time>2021-09-10T21:55:50Z</time>
      </trkpt>
      <trkpt lat="45.6249" lon="3.44931">
        <ele>646</ele>
        <time>2021-09-10T21:55:59Z</time>
      </trkpt>
      <trkpt lat="45.62566" lon="3.44858">
        <ele>653</ele>
        <time>2021-09-10T21:56:20Z</time>
      </trkpt>
      <trkpt lat="45.62617" lon="3.44885">
        <ele>649</ele>
        <time>2021-09-10T21:56:33Z</time>
      </trkpt>
      <trkpt lat="45.62635" lon="3.44884">
        <ele>648</ele>
        <time>2021-09-10T21:56:37Z</time>
      </trkpt>
      <trkpt lat="45.62653" lon="3.44878">
        <ele>646</ele>
        <time>2021-09-10T21:56:42Z</time>
      </trkpt>
      <trkpt lat="45.62667" lon="3.44861">
        <ele>646</ele>
        <time>2021-09-10T21:56:46Z</time>
      </trkpt>
      <trkpt lat="45.62673" lon="3.44836">
        <ele>646</ele>
        <time>2021-09-10T21:56:50Z</time>
      </trkpt>
      <trkpt lat="45.62671" lon="3.44807">
        <ele>645</ele>
        <time>2021-09-10T21:56:55Z</time>
      </trkpt>
      <trkpt lat="45.62657" lon="3.44766">
        <ele>645</ele>
        <time>2021-09-10T21:57:02Z</time>
      </trkpt>
      <trkpt lat="45.62643" lon="3.44639">
        <ele>647</ele>
        <time>2021-09-10T21:57:23Z</time>
      </trkpt>
      <trkpt lat="45.6264" lon="3.44553">
        <ele>651</ele>
        <time>2021-09-10T21:57:37Z</time>
      </trkpt>
      <trkpt lat="45.62643" lon="3.44497">
        <ele>650</ele>
        <time>2021-09-10T21:57:47Z</time>
      </trkpt>
      <trkpt lat="45.62654" lon="3.44466">
        <ele>649</ele>
        <time>2021-09-10T21:57:52Z</time>
      </trkpt>
      <trkpt lat="45.62868" lon="3.44672">
        <ele>655</ele>
        <time>2021-09-10T21:58:53Z</time>
      </trkpt>
      <trkpt lat="45.62909" lon="3.44725">
        <ele>651</ele>
        <time>2021-09-10T21:59:05Z</time>
      </trkpt>
      <trkpt lat="45.62937" lon="3.44767">
        <ele>649</ele>
        <time>2021-09-10T21:59:15Z</time>
      </trkpt>
      <trkpt lat="45.6302" lon="3.44833">
        <ele>643</ele>
        <time>2021-09-10T21:59:37Z</time>
      </trkpt>
      <trkpt lat="45.63074" lon="3.4494">
        <ele>639</ele>
        <time>2021-09-10T21:59:59Z</time>
      </trkpt>
      <trkpt lat="45.63121" lon="3.45002">
        <ele>633</ele>
        <time>2021-09-10T22:00:14Z</time>
      </trkpt>
      <trkpt lat="45.63117" lon="3.45034">
        <ele>631</ele>
        <time>2021-09-10T22:00:19Z</time>
      </trkpt>
      <trkpt lat="45.63065" lon="3.45073">
        <ele>628</ele>
        <time>2021-09-10T22:00:33Z</time>
      </trkpt>
      <trkpt lat="45.63012" lon="3.45156">
        <ele>619</ele>
        <time>2021-09-10T22:00:51Z</time>
      </trkpt>
      <trkpt lat="45.62966" lon="3.45205">
        <ele>610</ele>
        <time>2021-09-10T22:01:04Z</time>
      </trkpt>
      <trkpt lat="45.62923" lon="3.45228">
        <ele>606</ele>
        <time>2021-09-10T22:01:15Z</time>
      </trkpt>
      <trkpt lat="45.62921" lon="3.45239">
        <ele>604</ele>
        <time>2021-09-10T22:01:17Z</time>
      </trkpt>
      <trkpt lat="45.62927" lon="3.45257">
        <ele>602</ele>
        <time>2021-09-10T22:01:20Z</time>
      </trkpt>
      <trkpt lat="45.62947" lon="3.45273">
        <ele>600</ele>
        <time>2021-09-10T22:01:26Z</time>
      </trkpt>
      <trkpt lat="45.63014" lon="3.45303">
        <ele>599</ele>
        <time>2021-09-10T22:01:42Z</time>
      </trkpt>
      <trkpt lat="45.63044" lon="3.45312">
        <ele>595</ele>
        <time>2021-09-10T22:01:49Z</time>
      </trkpt>
      <trkpt lat="45.63059" lon="3.45349">
        <ele>592</ele>
        <time>2021-09-10T22:01:56Z</time>
      </trkpt>
      <trkpt lat="45.63084" lon="3.45397">
        <ele>590</ele>
        <time>2021-09-10T22:02:06Z</time>
      </trkpt>
      <trkpt lat="45.63091" lon="3.45419">
        <ele>588</ele>
        <time>2021-09-10T22:02:10Z</time>
      </trkpt>
      <trkpt lat="45.63089" lon="3.45436">
        <ele>587</ele>
        <time>2021-09-10T22:02:13Z</time>
      </trkpt>
      <trkpt lat="45.63102" lon="3.45507">
        <ele>576</ele>
        <time>2021-09-10T22:02:25Z</time>
      </trkpt>
      <trkpt lat="45.63114" lon="3.45537">
        <ele>568</ele>
        <time>2021-09-10T22:02:30Z</time>
      </trkpt>
      <trkpt lat="45.63124" lon="3.45548">
        <ele>564</ele>
        <time>2021-09-10T22:02:33Z</time>
      </trkpt>
      <trkpt lat="45.63173" lon="3.45555">
        <ele>553</ele>
        <time>2021-09-10T22:02:45Z</time>
      </trkpt>
      <trkpt lat="45.63224" lon="3.45592">
        <ele>540</ele>
        <time>2021-09-10T22:02:58Z</time>
      </trkpt>
      <trkpt lat="45.63233" lon="3.45602">
        <ele>538</ele>
        <time>2021-09-10T22:03:01Z</time>
      </trkpt>
      <trkpt lat="45.63237" lon="3.45614">
        <ele>537</ele>
        <time>2021-09-10T22:03:03Z</time>
      </trkpt>
      <trkpt lat="45.6325" lon="3.45629">
        <ele>535</ele>
        <time>2021-09-10T22:03:07Z</time>
      </trkpt>
      <trkpt lat="45.63278" lon="3.45649">
        <ele>530</ele>
        <time>2021-09-10T22:03:14Z</time>
      </trkpt>
      <trkpt lat="45.63298" lon="3.45659">
        <ele>527</ele>
        <time>2021-09-10T22:03:19Z</time>
      </trkpt>
      <trkpt lat="45.6333" lon="3.45662">
        <ele>522</ele>
        <time>2021-09-10T22:03:27Z</time>
      </trkpt>
      <trkpt lat="45.6335" lon="3.45681">
        <ele>519</ele>
        <time>2021-09-10T22:03:32Z</time>
      </trkpt>
      <trkpt lat="45.63361" lon="3.45687">
        <ele>518</ele>
        <time>2021-09-10T22:03:35Z</time>
      </trkpt>
      <trkpt lat="45.63371" lon="3.45659">
        <ele>517</ele>
        <time>2021-09-10T22:03:40Z</time>
      </trkpt>
      <trkpt lat="45.63384" lon="3.45634">
        <ele>517</ele>
        <time>2021-09-10T22:03:45Z</time>
      </trkpt>
      <trkpt lat="45.63394" lon="3.45619">
        <ele>517</ele>
        <time>2021-09-10T22:03:49Z</time>
      </trkpt>
      <trkpt lat="45.63412" lon="3.45604">
        <ele>518</ele>
        <time>2021-09-10T22:03:53Z</time>
      </trkpt>
      <trkpt lat="45.63422" lon="3.45588">
        <ele>519</ele>
        <time>2021-09-10T22:03:57Z</time>
      </trkpt>
      <trkpt lat="45.63428" lon="3.45536">
        <ele>523</ele>
        <time>2021-09-10T22:04:05Z</time>
      </trkpt>
      <trkpt lat="45.63462" lon="3.45511">
        <ele>526</ele>
        <time>2021-09-10T22:04:14Z</time>
      </trkpt>
      <trkpt lat="45.63478" lon="3.45503">
        <ele>526</ele>
        <time>2021-09-10T22:04:18Z</time>
      </trkpt>
      <trkpt lat="45.63513" lon="3.45465">
        <ele>538</ele>
        <time>2021-09-10T22:04:29Z</time>
      </trkpt>
      <trkpt lat="45.6353" lon="3.45456">
        <ele>541</ele>
        <time>2021-09-10T22:04:33Z</time>
      </trkpt>
      <trkpt lat="45.63556" lon="3.45469">
        <ele>539</ele>
        <time>2021-09-10T22:04:39Z</time>
      </trkpt>
      <trkpt lat="45.6356" lon="3.45474">
        <ele>538</ele>
        <time>2021-09-10T22:04:41Z</time>
      </trkpt>
      <trkpt lat="45.63615" lon="3.45486">
        <ele>541</ele>
        <time>2021-09-10T22:04:54Z</time>
      </trkpt>
      <trkpt lat="45.63727" lon="3.45521">
        <ele>550</ele>
        <time>2021-09-10T22:05:20Z</time>
      </trkpt>
      <trkpt lat="45.63752" lon="3.45525">
        <ele>552</ele>
        <time>2021-09-10T22:05:26Z</time>
      </trkpt>
      <trkpt lat="45.6378" lon="3.45522">
        <ele>555</ele>
        <time>2021-09-10T22:05:33Z</time>
      </trkpt>
      <trkpt lat="45.63804" lon="3.45528">
        <ele>556</ele>
        <time>2021-09-10T22:05:38Z</time>
      </trkpt>
      <trkpt lat="45.63823" lon="3.45548">
        <ele>554</ele>
        <time>2021-09-10T22:05:44Z</time>
      </trkpt>
      <trkpt lat="45.63851" lon="3.45557">
        <ele>555</ele>
        <time>2021-09-10T22:05:51Z</time>
      </trkpt>
      <trkpt lat="45.6386" lon="3.45553">
        <ele>556</ele>
        <time>2021-09-10T22:05:53Z</time>
      </trkpt>
      <trkpt lat="45.6387" lon="3.45535">
        <ele>560</ele>
        <time>2021-09-10T22:05:57Z</time>
      </trkpt>
      <trkpt lat="45.63867" lon="3.45485">
        <ele>567</ele>
        <time>2021-09-10T22:06:05Z</time>
      </trkpt>
      <trkpt lat="45.63886" lon="3.45506">
        <ele>566</ele>
        <time>2021-09-10T22:06:10Z</time>
      </trkpt>
      <trkpt lat="45.639" lon="3.45534">
        <ele>563</ele>
        <time>2021-09-10T22:06:16Z</time>
      </trkpt>
      <trkpt lat="45.63966" lon="3.4558">
        <ele>554</ele>
        <time>2021-09-10T22:06:33Z</time>
      </trkpt>
      <trkpt lat="45.64001" lon="3.45598">
        <ele>550</ele>
        <time>2021-09-10T22:06:42Z</time>
      </trkpt>
      <trkpt lat="45.6401" lon="3.45599">
        <ele>548</ele>
        <time>2021-09-10T22:06:44Z</time>
      </trkpt>
      <trkpt lat="45.64015" lon="3.45605">
        <ele>547</ele>
        <time>2021-09-10T22:06:45Z</time>
      </trkpt>
      <trkpt lat="45.64025" lon="3.45608">
        <ele>545</ele>
        <time>2021-09-10T22:06:48Z</time>
      </trkpt>
      <trkpt lat="45.64061" lon="3.45632">
        <ele>538</ele>
        <time>2021-09-10T22:06:57Z</time>
      </trkpt>
      <trkpt lat="45.64101" lon="3.45647">
        <ele>532</ele>
        <time>2021-09-10T22:07:07Z</time>
      </trkpt>
      <trkpt lat="45.64132" lon="3.45651">
        <ele>528</ele>
        <time>2021-09-10T22:07:14Z</time>
      </trkpt>
      <trkpt lat="45.64167" lon="3.4563">
        <ele>522</ele>
        <time>2021-09-10T22:07:23Z</time>
      </trkpt>
      <trkpt lat="45.64211" lon="3.45651">
        <ele>518</ele>
        <time>2021-09-10T22:07:34Z</time>
      </trkpt>
      <trkpt lat="45.64268" lon="3.45645">
        <ele>511</ele>
        <time>2021-09-10T22:07:47Z</time>
      </trkpt>
      <trkpt lat="45.64315" lon="3.45645">
        <ele>507</ele>
        <time>2021-09-10T22:07:58Z</time>
      </trkpt>
      <trkpt lat="45.64335" lon="3.4565">
        <ele>506</ele>
        <time>2021-09-10T22:08:03Z</time>
      </trkpt>
      <trkpt lat="45.64357" lon="3.45662">
        <ele>504</ele>
        <time>2021-09-10T22:08:08Z</time>
      </trkpt>
      <trkpt lat="45.64401" lon="3.45694">
        <ele>500</ele>
        <time>2021-09-10T22:08:20Z</time>
      </trkpt>
      <trkpt lat="45.64467" lon="3.45772">
        <ele>494</ele>
        <time>2021-09-10T22:08:40Z</time>
      </trkpt>
      <trkpt lat="45.64469" lon="3.45785">
        <ele>494</ele>
        <time>2021-09-10T22:08:42Z</time>
      </trkpt>
      <trkpt lat="45.64497" lon="3.45829">
        <ele>493</ele>
        <time>2021-09-10T22:08:52Z</time>
      </trkpt>
      <trkpt lat="45.64511" lon="3.45878">
        <ele>493</ele>
        <time>2021-09-10T22:09:00Z</time>
      </trkpt>
      <trkpt lat="45.64482" lon="3.45958">
        <ele>495</ele>
        <time>2021-09-10T22:09:15Z</time>
      </trkpt>
      <trkpt lat="45.64445" lon="3.46002">
        <ele>496</ele>
        <time>2021-09-10T22:09:26Z</time>
      </trkpt>
      <trkpt lat="45.64443" lon="3.46008">
        <ele>497</ele>
        <time>2021-09-10T22:09:27Z</time>
      </trkpt>
      <trkpt lat="45.64473" lon="3.46034">
        <ele>498</ele>
        <time>2021-09-10T22:09:36Z</time>
      </trkpt>
      <trkpt lat="45.64481" lon="3.46045">
        <ele>498</ele>
        <time>2021-09-10T22:09:38Z</time>
      </trkpt>
      <trkpt lat="45.64499" lon="3.46086">
        <ele>500</ele>
        <time>2021-09-10T22:09:46Z</time>
      </trkpt>
      <trkpt lat="45.64517" lon="3.46103">
        <ele>502</ele>
        <time>2021-09-10T22:09:51Z</time>
      </trkpt>
      <trkpt lat="45.64533" lon="3.4611">
        <ele>504</ele>
        <time>2021-09-10T22:09:55Z</time>
      </trkpt>
      <trkpt lat="45.64532" lon="3.46119">
        <ele>505</ele>
        <time>2021-09-10T22:09:57Z</time>
      </trkpt>
      <trkpt lat="45.64568" lon="3.46102">
        <ele>505</ele>
        <time>2021-09-10T22:10:05Z</time>
      </trkpt>
      <trkpt lat="45.64603" lon="3.46097">
        <ele>505</ele>
        <time>2021-09-10T22:10:14Z</time>
      </trkpt>
      <trkpt lat="45.64718" lon="3.46111">
        <ele>505</ele>
        <time>2021-09-10T22:10:41Z</time>
      </trkpt>
      <trkpt lat="45.64726" lon="3.46064">
        <ele>498</ele>
        <time>2021-09-10T22:10:48Z</time>
      </trkpt>
      <trkpt lat="45.64769" lon="3.46035">
        <ele>495</ele>
        <time>2021-09-10T22:11:00Z</time>
      </trkpt>
      <trkpt lat="45.64779" lon="3.45977">
        <ele>491</ele>
        <time>2021-09-10T22:11:09Z</time>
      </trkpt>
      <trkpt lat="45.64827" lon="3.45961">
        <ele>491</ele>
        <time>2021-09-10T22:11:21Z</time>
      </trkpt>
      <trkpt lat="45.64863" lon="3.45788">
        <ele>486</ele>
        <time>2021-09-10T22:11:50Z</time>
      </trkpt>
      <trkpt lat="45.649" lon="3.45783">
        <ele>486</ele>
        <time>2021-09-10T22:11:59Z</time>
      </trkpt>
      <trkpt lat="45.64971" lon="3.45624">
        <ele>485</ele>
        <time>2021-09-10T22:12:30Z</time>
      </trkpt>
      <trkpt lat="45.6497" lon="3.4555">
        <ele>487</ele>
        <time>2021-09-10T22:12:42Z</time>
      </trkpt>
      <trkpt lat="45.64985" lon="3.4551">
        <ele>489</ele>
        <time>2021-09-10T22:12:49Z</time>
      </trkpt>
      <trkpt lat="45.65032" lon="3.45484">
        <ele>491</ele>
        <time>2021-09-10T22:13:01Z</time>
      </trkpt>
      <trkpt lat="45.65029" lon="3.45417">
        <ele>497</ele>
        <time>2021-09-10T22:13:12Z</time>
      </trkpt>
      <trkpt lat="45.65036" lon="3.45385">
        <ele>501</ele>
        <time>2021-09-10T22:13:17Z</time>
      </trkpt>
      <trkpt lat="45.65032" lon="3.4533">
        <ele>509</ele>
        <time>2021-09-10T22:13:26Z</time>
      </trkpt>
      <trkpt lat="45.65024" lon="3.45299">
        <ele>514</ele>
        <time>2021-09-10T22:13:32Z</time>
      </trkpt>
      <trkpt lat="45.65034" lon="3.4528">
        <ele>516</ele>
        <time>2021-09-10T22:13:36Z</time>
      </trkpt>
      <trkpt lat="45.65018" lon="3.45235">
        <ele>525</ele>
        <time>2021-09-10T22:13:44Z</time>
      </trkpt>
      <trkpt lat="45.64982" lon="3.45225">
        <ele>527</ele>
        <time>2021-09-10T22:13:53Z</time>
      </trkpt>
      <trkpt lat="45.64943" lon="3.45198">
        <ele>528</ele>
        <time>2021-09-10T22:14:03Z</time>
      </trkpt>
      <trkpt lat="45.64925" lon="3.45153">
        <ele>533</ele>
        <time>2021-09-10T22:14:11Z</time>
      </trkpt>
      <trkpt lat="45.6498" lon="3.45116">
        <ele>545</ele>
        <time>2021-09-10T22:14:25Z</time>
      </trkpt>
      <trkpt lat="45.65003" lon="3.45061">
        <ele>554</ele>
        <time>2021-09-10T22:14:36Z</time>
      </trkpt>
      <trkpt lat="45.65011" lon="3.45011">
        <ele>562</ele>
        <time>2021-09-10T22:14:44Z</time>
      </trkpt>
      <trkpt lat="45.64965" lon="3.4496">
        <ele>574</ele>
        <time>2021-09-10T22:14:58Z</time>
      </trkpt>
      <trkpt lat="45.64857" lon="3.44905">
        <ele>590</ele>
        <time>2021-09-10T22:15:25Z</time>
      </trkpt>
      <trkpt lat="45.64853" lon="3.44847">
        <ele>597</ele>
        <time>2021-09-10T22:15:34Z</time>
      </trkpt>
      <trkpt lat="45.64725" lon="3.44787">
        <ele>614</ele>
        <time>2021-09-10T22:16:06Z</time>
      </trkpt>
      <trkpt lat="45.64656" lon="3.44715">
        <ele>622</ele>
        <time>2021-09-10T22:16:25Z</time>
      </trkpt>
      <trkpt lat="45.64627" lon="3.44659">
        <ele>624</ele>
        <time>2021-09-10T22:16:37Z</time>
      </trkpt>
      <trkpt lat="45.64595" lon="3.44545">
        <ele>631</ele>
        <time>2021-09-10T22:16:57Z</time>
      </trkpt>
      <trkpt lat="45.64576" lon="3.44494">
        <ele>633</ele>
        <time>2021-09-10T22:17:06Z</time>
      </trkpt>
      <trkpt lat="45.64547" lon="3.44444">
        <ele>634</ele>
        <time>2021-09-10T22:17:17Z</time>
      </trkpt>
      <trkpt lat="45.64424" lon="3.44349">
        <ele>642</ele>
        <time>2021-09-10T22:17:50Z</time>
      </trkpt>
      <trkpt lat="45.64405" lon="3.44279">
        <ele>645</ele>
        <time>2021-09-10T22:18:02Z</time>
      </trkpt>
      <trkpt lat="45.64481" lon="3.44308">
        <ele>641</ele>
        <time>2021-09-10T22:18:20Z</time>
      </trkpt>
      <trkpt lat="45.64557" lon="3.4427">
        <ele>634</ele>
        <time>2021-09-10T22:18:39Z</time>
      </trkpt>
      <trkpt lat="45.64592" lon="3.44272">
        <ele>631</ele>
        <time>2021-09-10T22:18:47Z</time>
      </trkpt>
      <trkpt lat="45.64642" lon="3.44255">
        <ele>627</ele>
        <time>2021-09-10T22:18:59Z</time>
      </trkpt>
      <trkpt lat="45.64728" lon="3.44248">
        <ele>620</ele>
        <time>2021-09-10T22:19:19Z</time>
      </trkpt>
      <trkpt lat="45.64745" lon="3.44243">
        <ele>619</ele>
        <time>2021-09-10T22:19:23Z</time>
      </trkpt>
      <trkpt lat="45.64751" lon="3.44213">
        <ele>619</ele>
        <time>2021-09-10T22:19:28Z</time>
      </trkpt>
      <trkpt lat="45.64776" lon="3.44171">
        <ele>619</ele>
        <time>2021-09-10T22:19:37Z</time>
      </trkpt>
      <trkpt lat="45.64818" lon="3.44172">
        <ele>617</ele>
        <time>2021-09-10T22:19:47Z</time>
      </trkpt>
      <trkpt lat="45.64869" lon="3.44215">
        <ele>616</ele>
        <time>2021-09-10T22:20:01Z</time>
      </trkpt>
      <trkpt lat="45.64947" lon="3.44295">
        <ele>616</ele>
        <time>2021-09-10T22:20:23Z</time>
      </trkpt>
      <trkpt lat="45.65019" lon="3.44352">
        <ele>617</ele>
        <time>2021-09-10T22:20:43Z</time>
      </trkpt>
      <trkpt lat="45.65037" lon="3.44386">
        <ele>616</ele>
        <time>2021-09-10T22:20:50Z</time>
      </trkpt>
      <trkpt lat="45.65088" lon="3.44373">
        <ele>619</ele>
        <time>2021-09-10T22:21:02Z</time>
      </trkpt>
      <trkpt lat="45.65196" lon="3.44379">
        <ele>623</ele>
        <time>2021-09-10T22:21:27Z</time>
      </trkpt>
      <trkpt lat="45.65254" lon="3.44396">
        <ele>621</ele>
        <time>2021-09-10T22:21:41Z</time>
      </trkpt>
      <trkpt lat="45.65276" lon="3.44414">
        <ele>618</ele>
        <time>2021-09-10T22:21:47Z</time>
      </trkpt>
      <trkpt lat="45.65305" lon="3.44447">
        <ele>612</ele>
        <time>2021-09-10T22:21:55Z</time>
      </trkpt>
      <trkpt lat="45.65354" lon="3.44474">
        <ele>607</ele>
        <time>2021-09-10T22:22:08Z</time>
      </trkpt>
      <trkpt lat="45.65438" lon="3.445">
        <ele>603</ele>
        <time>2021-09-10T22:22:28Z</time>
      </trkpt>
      <trkpt lat="45.65525" lon="3.44503">
        <ele>599</ele>
        <time>2021-09-10T22:22:48Z</time>
      </trkpt>
      <trkpt lat="45.65551" lon="3.44508">
        <ele>598</ele>
        <time>2021-09-10T22:22:54Z</time>
      </trkpt>
      <trkpt lat="45.65574" lon="3.44521">
        <ele>597</ele>
        <time>2021-09-10T22:23:00Z</time>
      </trkpt>
      <trkpt lat="45.65596" lon="3.44528">
        <ele>594</ele>
        <time>2021-09-10T22:23:05Z</time>
      </trkpt>
      <trkpt lat="45.65611" lon="3.44539">
        <ele>591</ele>
        <time>2021-09-10T22:23:09Z</time>
      </trkpt>
      <trkpt lat="45.65625" lon="3.44531">
        <ele>591</ele>
        <time>2021-09-10T22:23:13Z</time>
      </trkpt>
      <trkpt lat="45.65635" lon="3.44517">
        <ele>591</ele>
        <time>2021-09-10T22:23:16Z</time>
      </trkpt>
      <trkpt lat="45.65647" lon="3.44514">
        <ele>590</ele>
        <time>2021-09-10T22:23:19Z</time>
      </trkpt>
      <trkpt lat="45.65711" lon="3.44531">
        <ele>576</ele>
        <time>2021-09-10T22:23:34Z</time>
      </trkpt>
      <trkpt lat="45.65726" lon="3.44538">
        <ele>572</ele>
        <time>2021-09-10T22:23:38Z</time>
      </trkpt>
      <trkpt lat="45.65745" lon="3.4454">
        <ele>568</ele>
        <time>2021-09-10T22:23:42Z</time>
      </trkpt>
      <trkpt lat="45.6576" lon="3.44527">
        <ele>565</ele>
        <time>2021-09-10T22:23:46Z</time>
      </trkpt>
      <trkpt lat="45.65734" lon="3.44472">
        <ele>575</ele>
        <time>2021-09-10T22:23:57Z</time>
      </trkpt>
      <trkpt lat="45.65731" lon="3.44438">
        <ele>576</ele>
        <time>2021-09-10T22:24:03Z</time>
      </trkpt>
      <trkpt lat="45.65745" lon="3.44431">
        <ele>575</ele>
        <time>2021-09-10T22:24:06Z</time>
      </trkpt>
      <trkpt lat="45.65753" lon="3.44412">
        <ele>575</ele>
        <time>2021-09-10T22:24:10Z</time>
      </trkpt>
      <trkpt lat="45.65764" lon="3.444">
        <ele>577</ele>
        <time>2021-09-10T22:24:13Z</time>
      </trkpt>
      <trkpt lat="45.65778" lon="3.44399">
        <ele>575</ele>
        <time>2021-09-10T22:24:16Z</time>
      </trkpt>
      <trkpt lat="45.65814" lon="3.44385">
        <ele>575</ele>
        <time>2021-09-10T22:24:25Z</time>
      </trkpt>
      <trkpt lat="45.65846" lon="3.44396">
        <ele>570</ele>
        <time>2021-09-10T22:24:33Z</time>
      </trkpt>
      <trkpt lat="45.65873" lon="3.44393">
        <ele>569</ele>
        <time>2021-09-10T22:24:39Z</time>
      </trkpt>
      <trkpt lat="45.65894" lon="3.44402">
        <ele>565</ele>
        <time>2021-09-10T22:24:44Z</time>
      </trkpt>
      <trkpt lat="45.6597" lon="3.44407">
        <ele>562</ele>
        <time>2021-09-10T22:25:02Z</time>
      </trkpt>
      <trkpt lat="45.65998" lon="3.4442">
        <ele>561</ele>
        <time>2021-09-10T22:25:09Z</time>
      </trkpt>
      <trkpt lat="45.66016" lon="3.44434">
        <ele>556</ele>
        <time>2021-09-10T22:25:14Z</time>
      </trkpt>
      <trkpt lat="45.66049" lon="3.44422">
        <ele>554</ele>
        <time>2021-09-10T22:25:21Z</time>
      </trkpt>
      <trkpt lat="45.66052" lon="3.44411">
        <ele>554</ele>
        <time>2021-09-10T22:25:23Z</time>
      </trkpt>
      <trkpt lat="45.6607" lon="3.44413">
        <ele>552</ele>
        <time>2021-09-10T22:25:28Z</time>
      </trkpt>
      <trkpt lat="45.66123" lon="3.44465">
        <ele>545</ele>
        <time>2021-09-10T22:25:43Z</time>
      </trkpt>
      <trkpt lat="45.66181" lon="3.44507">
        <ele>544</ele>
        <time>2021-09-10T22:25:58Z</time>
      </trkpt>
      <trkpt lat="45.6621" lon="3.44506">
        <ele>543</ele>
        <time>2021-09-10T22:26:05Z</time>
      </trkpt>
      <trkpt lat="45.66247" lon="3.44525">
        <ele>543</ele>
        <time>2021-09-10T22:26:14Z</time>
      </trkpt>
      <trkpt lat="45.66268" lon="3.44541">
        <ele>541</ele>
        <time>2021-09-10T22:26:19Z</time>
      </trkpt>
      <trkpt lat="45.66303" lon="3.44589">
        <ele>539</ele>
        <time>2021-09-10T22:26:31Z</time>
      </trkpt>
      <trkpt lat="45.66342" lon="3.44625">
        <ele>539</ele>
        <time>2021-09-10T22:26:41Z</time>
      </trkpt>
      <trkpt lat="45.66389" lon="3.44692">
        <ele>534</ele>
        <time>2021-09-10T22:26:57Z</time>
      </trkpt>
      <trkpt lat="45.66431" lon="3.44771">
        <ele>528</ele>
        <time>2021-09-10T22:27:13Z</time>
      </trkpt>
      <trkpt lat="45.66465" lon="3.44762">
        <ele>523</ele>
        <time>2021-09-10T22:27:21Z</time>
      </trkpt>
      <trkpt lat="45.66513" lon="3.44794">
        <ele>517</ele>
        <time>2021-09-10T22:27:34Z</time>
      </trkpt>
      <trkpt lat="45.66541" lon="3.44823">
        <ele>515</ele>
        <time>2021-09-10T22:27:42Z</time>
      </trkpt>
      <trkpt lat="45.66555" lon="3.4486">
        <ele>517</ele>
        <time>2021-09-10T22:27:49Z</time>
      </trkpt>
      <trkpt lat="45.66588" lon="3.44895">
        <ele>520</ele>
        <time>2021-09-10T22:27:58Z</time>
      </trkpt>
      <trkpt lat="45.66631" lon="3.44905">
        <ele>516</ele>
        <time>2021-09-10T22:28:08Z</time>
      </trkpt>
      <trkpt lat="45.66656" lon="3.44896">
        <ele>511</ele>
        <time>2021-09-10T22:28:14Z</time>
      </trkpt>
      <trkpt lat="45.66699" lon="3.44897">
        <ele>505</ele>
        <time>2021-09-10T22:28:24Z</time>
      </trkpt>
      <trkpt lat="45.66782" lon="3.4488">
        <ele>491</ele>
        <time>2021-09-10T22:28:44Z</time>
      </trkpt>
      <trkpt lat="45.6682" lon="3.4488">
        <ele>486</ele>
        <time>2021-09-10T22:28:53Z</time>
      </trkpt>
      <trkpt lat="45.66906" lon="3.44895">
        <ele>479</ele>
        <time>2021-09-10T22:29:13Z</time>
      </trkpt>
      <trkpt lat="45.66937" lon="3.44905">
        <ele>477</ele>
        <time>2021-09-10T22:29:20Z</time>
      </trkpt>
      <trkpt lat="45.66942" lon="3.44867">
        <ele>473</ele>
        <time>2021-09-10T22:29:27Z</time>
      </trkpt>
      <trkpt lat="45.66969" lon="3.44877">
        <ele>472</ele>
        <time>2021-09-10T22:29:33Z</time>
      </trkpt>
      <trkpt lat="45.67025" lon="3.44849">
        <ele>470</ele>
        <time>2021-09-10T22:29:47Z</time>
      </trkpt>
      <trkpt lat="45.67054" lon="3.44843">
        <ele>472</ele>
        <time>2021-09-10T22:29:54Z</time>
      </trkpt>
      <trkpt lat="45.6713" lon="3.44895">
        <ele>478</ele>
        <time>2021-09-10T22:30:14Z</time>
      </trkpt>
      <trkpt lat="45.67184" lon="3.44916">
        <ele>479</ele>
        <time>2021-09-10T22:30:27Z</time>
      </trkpt>
      <trkpt lat="45.67264" lon="3.44919">
        <ele>481</ele>
        <time>2021-09-10T22:30:45Z</time>
      </trkpt>
      <trkpt lat="45.67282" lon="3.44918">
        <ele>481</ele>
        <time>2021-09-10T22:30:50Z</time>
      </trkpt>
      <trkpt lat="45.67306" lon="3.4491">
        <ele>482</ele>
        <time>2021-09-10T22:30:55Z</time>
      </trkpt>
      <trkpt lat="45.67368" lon="3.44911">
        <ele>486</ele>
        <time>2021-09-10T22:31:10Z</time>
      </trkpt>
      <trkpt lat="45.67399" lon="3.44914">
        <ele>489</ele>
        <time>2021-09-10T22:31:17Z</time>
      </trkpt>
      <trkpt lat="45.67445" lon="3.44909">
        <ele>493</ele>
        <time>2021-09-10T22:31:28Z</time>
      </trkpt>
      <trkpt lat="45.67484" lon="3.449">
        <ele>495</ele>
        <time>2021-09-10T22:31:37Z</time>
      </trkpt>
      <trkpt lat="45.67524" lon="3.44907">
        <ele>497</ele>
        <time>2021-09-10T22:31:47Z</time>
      </trkpt>
      <trkpt lat="45.67596" lon="3.44912">
        <ele>500</ele>
        <time>2021-09-10T22:32:03Z</time>
      </trkpt>
      <trkpt lat="45.67625" lon="3.44902">
        <ele>502</ele>
        <time>2021-09-10T22:32:10Z</time>
      </trkpt>
      <trkpt lat="45.67657" lon="3.44876">
        <ele>505</ele>
        <time>2021-09-10T22:32:19Z</time>
      </trkpt>
      <trkpt lat="45.67673" lon="3.44846">
        <ele>508</ele>
        <time>2021-09-10T22:32:25Z</time>
      </trkpt>
      <trkpt lat="45.67686" lon="3.4481">
        <ele>509</ele>
        <time>2021-09-10T22:32:32Z</time>
      </trkpt>
      <trkpt lat="45.67716" lon="3.44599">
        <ele>521</ele>
        <time>2021-09-10T22:33:07Z</time>
      </trkpt>
      <trkpt lat="45.67706" lon="3.4454">
        <ele>526</ele>
        <time>2021-09-10T22:33:17Z</time>
      </trkpt>
      <trkpt lat="45.67707" lon="3.44491">
        <ele>528</ele>
        <time>2021-09-10T22:33:25Z</time>
      </trkpt>
      <trkpt lat="45.67733" lon="3.44431">
        <ele>528</ele>
        <time>2021-09-10T22:33:36Z</time>
      </trkpt>
      <trkpt lat="45.67741" lon="3.4439">
        <ele>528</ele>
        <time>2021-09-10T22:33:43Z</time>
      </trkpt>
      <trkpt lat="45.67754" lon="3.44349">
        <ele>527</ele>
        <time>2021-09-10T22:33:51Z</time>
      </trkpt>
      <trkpt lat="45.67752" lon="3.44348">
        <ele>527</ele>
        <time>2021-09-10T22:33:51Z</time>
      </trkpt>
      <trkpt lat="45.67769" lon="3.44344">
        <ele>527</ele>
        <time>2021-09-10T22:33:55Z</time>
      </trkpt>
      <trkpt lat="45.6781" lon="3.44322">
        <ele>526</ele>
        <time>2021-09-10T22:34:05Z</time>
      </trkpt>
      <trkpt lat="45.67885" lon="3.44298">
        <ele>527</ele>
        <time>2021-09-10T22:34:23Z</time>
      </trkpt>
      <trkpt lat="45.6797" lon="3.44248">
        <ele>530</ele>
        <time>2021-09-10T22:34:45Z</time>
      </trkpt>
      <trkpt lat="45.67979" lon="3.44235">
        <ele>530</ele>
        <time>2021-09-10T22:34:48Z</time>
      </trkpt>
      <trkpt lat="45.67982" lon="3.44219">
        <ele>529</ele>
        <time>2021-09-10T22:34:50Z</time>
      </trkpt>
      <trkpt lat="45.67958" lon="3.44151">
        <ele>522</ele>
        <time>2021-09-10T22:35:03Z</time>
      </trkpt>
      <trkpt lat="45.67953" lon="3.44123">
        <ele>518</ele>
        <time>2021-09-10T22:35:08Z</time>
      </trkpt>
      <trkpt lat="45.67956" lon="3.44104">
        <ele>516</ele>
        <time>2021-09-10T22:35:11Z</time>
      </trkpt>
      <trkpt lat="45.67965" lon="3.4409">
        <ele>515</ele>
        <time>2021-09-10T22:35:14Z</time>
      </trkpt>
      <trkpt lat="45.68019" lon="3.44073">
        <ele>516</ele>
        <time>2021-09-10T22:35:27Z</time>
      </trkpt>
      <trkpt lat="45.68035" lon="3.44064">
        <ele>515</ele>
        <time>2021-09-10T22:35:31Z</time>
      </trkpt>
      <trkpt lat="45.68108" lon="3.44005">
        <ele>509</ele>
        <time>2021-09-10T22:35:50Z</time>
      </trkpt>
      <trkpt lat="45.68179" lon="3.43935">
        <ele>511</ele>
        <time>2021-09-10T22:36:10Z</time>
      </trkpt>
      <trkpt lat="45.68279" lon="3.43882">
        <ele>516</ele>
        <time>2021-09-10T22:36:35Z</time>
      </trkpt>
      <trkpt lat="45.68377" lon="3.43817">
        <ele>514</ele>
        <time>2021-09-10T22:37:01Z</time>
      </trkpt>
      <trkpt lat="45.6858" lon="3.43714">
        <ele>529</ele>
        <time>2021-09-10T22:37:51Z</time>
      </trkpt>
      <trkpt lat="45.68634" lon="3.43678">
        <ele>534</ele>
        <time>2021-09-10T22:38:05Z</time>
      </trkpt>
      <trkpt lat="45.6869" lon="3.43664">
        <ele>540</ele>
        <time>2021-09-10T22:38:18Z</time>
      </trkpt>
      <trkpt lat="45.68715" lon="3.43648">
        <ele>543</ele>
        <time>2021-09-10T22:38:24Z</time>
      </trkpt>
      <trkpt lat="45.68748" lon="3.43577">
        <ele>549</ele>
        <time>2021-09-10T22:38:38Z</time>
      </trkpt>
      <trkpt lat="45.68766" lon="3.43527">
        <ele>550</ele>
        <time>2021-09-10T22:38:48Z</time>
      </trkpt>
      <trkpt lat="45.6877" lon="3.43466">
        <ele>551</ele>
        <time>2021-09-10T22:38:58Z</time>
      </trkpt>
      <trkpt lat="45.68776" lon="3.43421">
        <ele>552</ele>
        <time>2021-09-10T22:39:05Z</time>
      </trkpt>
      <trkpt lat="45.68774" lon="3.43251">
        <ele>566</ele>
        <time>2021-09-10T22:39:33Z</time>
      </trkpt>
      <trkpt lat="45.68779" lon="3.43232">
        <ele>569</ele>
        <time>2021-09-10T22:39:36Z</time>
      </trkpt>
      <trkpt lat="45.68803" lon="3.43203">
        <ele>572</ele>
        <time>2021-09-10T22:39:43Z</time>
      </trkpt>
      <trkpt lat="45.68837" lon="3.43133">
        <ele>581</ele>
        <time>2021-09-10T22:39:57Z</time>
      </trkpt>
      <trkpt lat="45.68914" lon="3.43074">
        <ele>589</ele>
        <time>2021-09-10T22:40:18Z</time>
      </trkpt>
      <trkpt lat="45.68969" lon="3.43041">
        <ele>593</ele>
        <time>2021-09-10T22:40:32Z</time>
      </trkpt>
      <trkpt lat="45.68971" lon="3.43035">
        <ele>593</ele>
        <time>2021-09-10T22:40:33Z</time>
      </trkpt>
      <trkpt lat="45.68968" lon="3.43026">
        <ele>593</ele>
        <time>2021-09-10T22:40:34Z</time>
      </trkpt>
      <trkpt lat="45.68931" lon="3.42983">
        <ele>593</ele>
        <time>2021-09-10T22:40:45Z</time>
      </trkpt>
      <trkpt lat="45.68969" lon="3.42914">
        <ele>592</ele>
        <time>2021-09-10T22:41:00Z</time>
      </trkpt>
      <trkpt lat="45.68989" lon="3.42891">
        <ele>590</ele>
        <time>2021-09-10T22:41:06Z</time>
      </trkpt>
      <trkpt lat="45.69014" lon="3.42835">
        <ele>583</ele>
        <time>2021-09-10T22:41:17Z</time>
      </trkpt>
      <trkpt lat="45.69044" lon="3.42737">
        <ele>579</ele>
        <time>2021-09-10T22:41:34Z</time>
      </trkpt>
      <trkpt lat="45.69052" lon="3.42702">
        <ele>579</ele>
        <time>2021-09-10T22:41:40Z</time>
      </trkpt>
      <trkpt lat="45.69065" lon="3.42601">
        <ele>579</ele>
        <time>2021-09-10T22:41:57Z</time>
      </trkpt>
      <trkpt lat="45.6907" lon="3.42598">
        <ele>579</ele>
        <time>2021-09-10T22:41:58Z</time>
      </trkpt>
      <trkpt lat="45.69077" lon="3.426">
        <ele>579</ele>
        <time>2021-09-10T22:42:00Z</time>
      </trkpt>
      <trkpt lat="45.69077" lon="3.42597">
        <ele>579</ele>
        <time>2021-09-10T22:42:00Z</time>
      </trkpt>
      <trkpt lat="45.68987" lon="3.42586">
        <ele>575</ele>
        <time>2021-09-10T22:42:21Z</time>
      </trkpt>
      <trkpt lat="45.68974" lon="3.42577">
        <ele>575</ele>
        <time>2021-09-10T22:42:25Z</time>
      </trkpt>
      <trkpt lat="45.68964" lon="3.42563">
        <ele>575</ele>
        <time>2021-09-10T22:42:28Z</time>
      </trkpt>
      <trkpt lat="45.68952" lon="3.42506">
        <ele>575</ele>
        <time>2021-09-10T22:42:38Z</time>
      </trkpt>
      <trkpt lat="45.68944" lon="3.4249">
        <ele>576</ele>
        <time>2021-09-10T22:42:41Z</time>
      </trkpt>
      <trkpt lat="45.68927" lon="3.42461">
        <ele>577</ele>
        <time>2021-09-10T22:42:47Z</time>
      </trkpt>
      <trkpt lat="45.68905" lon="3.42443">
        <ele>579</ele>
        <time>2021-09-10T22:42:53Z</time>
      </trkpt>
      <trkpt lat="45.68899" lon="3.4243">
        <ele>580</ele>
        <time>2021-09-10T22:42:56Z</time>
      </trkpt>
      <trkpt lat="45.68897" lon="3.42408">
        <ele>581</ele>
        <time>2021-09-10T22:42:59Z</time>
      </trkpt>
      <trkpt lat="45.68915" lon="3.4222">
        <ele>588</ele>
        <time>2021-09-10T22:43:30Z</time>
      </trkpt>
      <trkpt lat="45.68939" lon="3.42166">
        <ele>593</ele>
        <time>2021-09-10T22:43:41Z</time>
      </trkpt>
      <trkpt lat="45.68955" lon="3.42116">
        <ele>595</ele>
        <time>2021-09-10T22:43:50Z</time>
      </trkpt>
      <trkpt lat="45.68957" lon="3.42095">
        <ele>596</ele>
        <time>2021-09-10T22:43:53Z</time>
      </trkpt>
      <trkpt lat="45.68951" lon="3.42089">
        <ele>596</ele>
        <time>2021-09-10T22:43:55Z</time>
      </trkpt>
      <trkpt lat="45.68839" lon="3.42055">
        <ele>606</ele>
        <time>2021-09-10T22:44:21Z</time>
      </trkpt>
      <trkpt lat="45.68808" lon="3.42037">
        <ele>608</ele>
        <time>2021-09-10T22:44:29Z</time>
      </trkpt>
      <trkpt lat="45.6874" lon="3.4205">
        <ele>613</ele>
        <time>2021-09-10T22:44:45Z</time>
      </trkpt>
      <trkpt lat="45.6871" lon="3.42026">
        <ele>616</ele>
        <time>2021-09-10T22:44:53Z</time>
      </trkpt>
      <trkpt lat="45.68662" lon="3.41968">
        <ele>624</ele>
        <time>2021-09-10T22:45:08Z</time>
      </trkpt>
      <trkpt lat="45.68636" lon="3.41946">
        <ele>624</ele>
        <time>2021-09-10T22:45:15Z</time>
      </trkpt>
      <trkpt lat="45.68611" lon="3.419">
        <ele>626</ele>
        <time>2021-09-10T22:45:25Z</time>
      </trkpt>
      <trkpt lat="45.68603" lon="3.41875">
        <ele>627</ele>
        <time>2021-09-10T22:45:29Z</time>
      </trkpt>
      <trkpt lat="45.68595" lon="3.41822">
        <ele>630</ele>
        <time>2021-09-10T22:45:38Z</time>
      </trkpt>
      <trkpt lat="45.68594" lon="3.41793">
        <ele>631</ele>
        <time>2021-09-10T22:45:43Z</time>
      </trkpt>
      <trkpt lat="45.68618" lon="3.41785">
        <ele>632</ele>
        <time>2021-09-10T22:45:48Z</time>
      </trkpt>
      <trkpt lat="45.68666" lon="3.41746">
        <ele>634</ele>
        <time>2021-09-10T22:46:01Z</time>
      </trkpt>
      <trkpt lat="45.68714" lon="3.41701">
        <ele>632</ele>
        <time>2021-09-10T22:46:15Z</time>
      </trkpt>
      <trkpt lat="45.68736" lon="3.41648">
        <ele>629</ele>
        <time>2021-09-10T22:46:25Z</time>
      </trkpt>
      <trkpt lat="45.68776" lon="3.41575">
        <ele>623</ele>
        <time>2021-09-10T22:46:40Z</time>
      </trkpt>
      <trkpt lat="45.68804" lon="3.4151">
        <ele>621</ele>
        <time>2021-09-10T22:46:52Z</time>
      </trkpt>
      <trkpt lat="45.68814" lon="3.41472">
        <ele>623</ele>
        <time>2021-09-10T22:46:59Z</time>
      </trkpt>
      <trkpt lat="45.68829" lon="3.41433">
        <ele>626</ele>
        <time>2021-09-10T22:47:06Z</time>
      </trkpt>
      <trkpt lat="45.68866" lon="3.41392">
        <ele>624</ele>
        <time>2021-09-10T22:47:17Z</time>
      </trkpt>
      <trkpt lat="45.68891" lon="3.41354">
        <ele>624</ele>
        <time>2021-09-10T22:47:26Z</time>
      </trkpt>
      <trkpt lat="45.68931" lon="3.41305">
        <ele>617</ele>
        <time>2021-09-10T22:47:38Z</time>
      </trkpt>
      <trkpt lat="45.68991" lon="3.41285">
        <ele>610</ele>
        <time>2021-09-10T22:47:52Z</time>
      </trkpt>
      <trkpt lat="45.69005" lon="3.41287">
        <ele>609</ele>
        <time>2021-09-10T22:47:56Z</time>
      </trkpt>
      <trkpt lat="45.69041" lon="3.4128">
        <ele>606</ele>
        <time>2021-09-10T22:48:04Z</time>
      </trkpt>
      <trkpt lat="45.69057" lon="3.41286">
        <ele>605</ele>
        <time>2021-09-10T22:48:08Z</time>
      </trkpt>
      <trkpt lat="45.69095" lon="3.41278">
        <ele>602</ele>
        <time>2021-09-10T22:48:17Z</time>
      </trkpt>
      <trkpt lat="45.6912" lon="3.41278">
        <ele>599</ele>
        <time>2021-09-10T22:48:23Z</time>
      </trkpt>
      <trkpt lat="45.69204" lon="3.41236">
        <ele>593</ele>
        <time>2021-09-10T22:48:44Z</time>
      </trkpt>
      <trkpt lat="45.69252" lon="3.41205">
        <ele>592</ele>
        <time>2021-09-10T22:48:56Z</time>
      </trkpt>
      <trkpt lat="45.69357" lon="3.41111">
        <ele>592</ele>
        <time>2021-09-10T22:49:25Z</time>
      </trkpt>
      <trkpt lat="45.69393" lon="3.4106">
        <ele>592</ele>
        <time>2021-09-10T22:49:37Z</time>
      </trkpt>
      <trkpt lat="45.69405" lon="3.41038">
        <ele>592</ele>
        <time>2021-09-10T22:49:41Z</time>
      </trkpt>
      <trkpt lat="45.69417" lon="3.40997">
        <ele>594</ele>
        <time>2021-09-10T22:49:48Z</time>
      </trkpt>
      <trkpt lat="45.69408" lon="3.40971">
        <ele>593</ele>
        <time>2021-09-10T22:49:53Z</time>
      </trkpt>
      <trkpt lat="45.6941" lon="3.40932">
        <ele>593</ele>
        <time>2021-09-10T22:50:00Z</time>
      </trkpt>
      <trkpt lat="45.69407" lon="3.40887">
        <ele>593</ele>
        <time>2021-09-10T22:50:07Z</time>
      </trkpt>
      <trkpt lat="45.69415" lon="3.40841">
        <ele>595</ele>
        <time>2021-09-10T22:50:15Z</time>
      </trkpt>
      <trkpt lat="45.69459" lon="3.40753">
        <ele>592</ele>
        <time>2021-09-10T22:50:32Z</time>
      </trkpt>
      <trkpt lat="45.69468" lon="3.40707">
        <ele>584</ele>
        <time>2021-09-10T22:50:40Z</time>
      </trkpt>
      <trkpt lat="45.69472" lon="3.40663">
        <ele>575</ele>
        <time>2021-09-10T22:50:47Z</time>
      </trkpt>
      <trkpt lat="45.69483" lon="3.40642">
        <ele>574</ele>
        <time>2021-09-10T22:50:52Z</time>
      </trkpt>
      <trkpt lat="45.69517" lon="3.406">
        <ele>571</ele>
        <time>2021-09-10T22:51:02Z</time>
      </trkpt>
      <trkpt lat="45.69564" lon="3.40571">
        <ele>568</ele>
        <time>2021-09-10T22:51:14Z</time>
      </trkpt>
      <trkpt lat="45.69611" lon="3.40496">
        <ele>567</ele>
        <time>2021-09-10T22:51:30Z</time>
      </trkpt>
      <trkpt lat="45.6968" lon="3.40411">
        <ele>575</ele>
        <time>2021-09-10T22:51:52Z</time>
      </trkpt>
      <trkpt lat="45.69708" lon="3.40389">
        <ele>577</ele>
        <time>2021-09-10T22:51:59Z</time>
      </trkpt>
      <trkpt lat="45.69729" lon="3.40366">
        <ele>579</ele>
        <time>2021-09-10T22:52:05Z</time>
      </trkpt>
      <trkpt lat="45.69755" lon="3.4032">
        <ele>584</ele>
        <time>2021-09-10T22:52:15Z</time>
      </trkpt>
      <trkpt lat="45.69776" lon="3.40259">
        <ele>584</ele>
        <time>2021-09-10T22:52:26Z</time>
      </trkpt>
      <trkpt lat="45.69797" lon="3.40215">
        <ele>580</ele>
        <time>2021-09-10T22:52:35Z</time>
      </trkpt>
      <trkpt lat="45.69813" lon="3.40207">
        <ele>579</ele>
        <time>2021-09-10T22:52:39Z</time>
      </trkpt>
      <trkpt lat="45.69816" lon="3.402">
        <ele>578</ele>
        <time>2021-09-10T22:52:40Z</time>
      </trkpt>
      <trkpt lat="45.69825" lon="3.40192">
        <ele>577</ele>
        <time>2021-09-10T22:52:43Z</time>
      </trkpt>
      <trkpt lat="45.69846" lon="3.40203">
        <ele>576</ele>
        <time>2021-09-10T22:52:48Z</time>
      </trkpt>
      <trkpt lat="45.69901" lon="3.40194">
        <ele>567</ele>
        <time>2021-09-10T22:53:01Z</time>
      </trkpt>
      <trkpt lat="45.69932" lon="3.40168">
        <ele>560</ele>
        <time>2021-09-10T22:53:09Z</time>
      </trkpt>
      <trkpt lat="45.69942" lon="3.40152">
        <ele>558</ele>
        <time>2021-09-10T22:53:13Z</time>
      </trkpt>
      <trkpt lat="45.69954" lon="3.40114">
        <ele>553</ele>
        <time>2021-09-10T22:53:19Z</time>
      </trkpt>
      <trkpt lat="45.69955" lon="3.40087">
        <ele>549</ele>
        <time>2021-09-10T22:53:24Z</time>
      </trkpt>
      <trkpt lat="45.69942" lon="3.39978">
        <ele>539</ele>
        <time>2021-09-10T22:53:42Z</time>
      </trkpt>
      <trkpt lat="45.69944" lon="3.39943">
        <ele>536</ele>
        <time>2021-09-10T22:53:48Z</time>
      </trkpt>
      <trkpt lat="45.69954" lon="3.39913">
        <ele>535</ele>
        <time>2021-09-10T22:53:53Z</time>
      </trkpt>
      <trkpt lat="45.69972" lon="3.39883">
        <ele>536</ele>
        <time>2021-09-10T22:53:59Z</time>
      </trkpt>
      <trkpt lat="45.69977" lon="3.39867">
        <ele>536</ele>
        <time>2021-09-10T22:54:02Z</time>
      </trkpt>
      <trkpt lat="45.6999" lon="3.39759">
        <ele>521</ele>
        <time>2021-09-10T22:54:20Z</time>
      </trkpt>
      <trkpt lat="45.7" lon="3.39737">
        <ele>519</ele>
        <time>2021-09-10T22:54:24Z</time>
      </trkpt>
      <trkpt lat="45.70015" lon="3.39656">
        <ele>506</ele>
        <time>2021-09-10T22:54:38Z</time>
      </trkpt>
      <trkpt lat="45.70029" lon="3.39631">
        <ele>505</ele>
        <time>2021-09-10T22:54:43Z</time>
      </trkpt>
      <trkpt lat="45.70034" lon="3.39556">
        <ele>496</ele>
        <time>2021-09-10T22:54:56Z</time>
      </trkpt>
      <trkpt lat="45.70044" lon="3.3953">
        <ele>493</ele>
        <time>2021-09-10T22:55:00Z</time>
      </trkpt>
      <trkpt lat="45.70051" lon="3.3952">
        <ele>493</ele>
        <time>2021-09-10T22:55:03Z</time>
      </trkpt>
      <trkpt lat="45.70065" lon="3.39508">
        <ele>492</ele>
        <time>2021-09-10T22:55:07Z</time>
      </trkpt>
      <trkpt lat="45.7009" lon="3.39498">
        <ele>490</ele>
        <time>2021-09-10T22:55:13Z</time>
      </trkpt>
      <trkpt lat="45.70113" lon="3.39509">
        <ele>489</ele>
        <time>2021-09-10T22:55:18Z</time>
      </trkpt>
      <trkpt lat="45.70129" lon="3.39507">
        <ele>486</ele>
        <time>2021-09-10T22:55:22Z</time>
      </trkpt>
      <trkpt lat="45.70134" lon="3.39503">
        <ele>485</ele>
        <time>2021-09-10T22:55:23Z</time>
      </trkpt>
      <trkpt lat="45.70144" lon="3.3954">
        <ele>490</ele>
        <time>2021-09-10T22:55:30Z</time>
      </trkpt>
      <trkpt lat="45.70157" lon="3.39552">
        <ele>490</ele>
        <time>2021-09-10T22:55:34Z</time>
      </trkpt>
      <trkpt lat="45.70184" lon="3.39554">
        <ele>488</ele>
        <time>2021-09-10T22:55:40Z</time>
      </trkpt>
      <trkpt lat="45.70197" lon="3.39541">
        <ele>487</ele>
        <time>2021-09-10T22:55:44Z</time>
      </trkpt>
      <trkpt lat="45.70198" lon="3.39536">
        <ele>486</ele>
        <time>2021-09-10T22:55:44Z</time>
      </trkpt>
      <trkpt lat="45.70193" lon="3.39514">
        <ele>485</ele>
        <time>2021-09-10T22:55:48Z</time>
      </trkpt>
      <trkpt lat="45.70193" lon="3.39482">
        <ele>483</ele>
        <time>2021-09-10T22:55:53Z</time>
      </trkpt>
      <trkpt lat="45.7021" lon="3.394">
        <ele>484</ele>
        <time>2021-09-10T22:56:07Z</time>
      </trkpt>
      <trkpt lat="45.70244" lon="3.39348">
        <ele>484</ele>
        <time>2021-09-10T22:56:19Z</time>
      </trkpt>
      <trkpt lat="45.70271" lon="3.39281">
        <ele>484</ele>
        <time>2021-09-10T22:56:32Z</time>
      </trkpt>
      <trkpt lat="45.70316" lon="3.39035">
        <ele>484</ele>
        <time>2021-09-10T22:57:13Z</time>
      </trkpt>
      <trkpt lat="45.70337" lon="3.38967">
        <ele>485</ele>
        <time>2021-09-10T22:57:25Z</time>
      </trkpt>
      <trkpt lat="45.70362" lon="3.38923">
        <ele>488</ele>
        <time>2021-09-10T22:57:34Z</time>
      </trkpt>
      <trkpt lat="45.70378" lon="3.38857">
        <ele>490</ele>
        <time>2021-09-10T22:57:46Z</time>
      </trkpt>
      <trkpt lat="45.70399" lon="3.3875">
        <ele>495</ele>
        <time>2021-09-10T22:58:04Z</time>
      </trkpt>
      <trkpt lat="45.70399" lon="3.38741">
        <ele>494</ele>
        <time>2021-09-10T22:58:05Z</time>
      </trkpt>
      <trkpt lat="45.70396" lon="3.38735">
        <ele>494</ele>
        <time>2021-09-10T22:58:07Z</time>
      </trkpt>
      <trkpt lat="45.70333" lon="3.38739">
        <ele>486</ele>
        <time>2021-09-10T22:58:21Z</time>
      </trkpt>
      <trkpt lat="45.70269" lon="3.38755">
        <ele>479</ele>
        <time>2021-09-10T22:58:36Z</time>
      </trkpt>
      <trkpt lat="45.7021" lon="3.38765">
        <ele>473</ele>
        <time>2021-09-10T22:58:50Z</time>
      </trkpt>
      <trkpt lat="45.70128" lon="3.38788">
        <ele>468</ele>
        <time>2021-09-10T22:59:10Z</time>
      </trkpt>
      <trkpt lat="45.70094" lon="3.38803">
        <ele>468</ele>
        <time>2021-09-10T22:59:18Z</time>
      </trkpt>
      <trkpt lat="45.70035" lon="3.38841">
        <ele>474</ele>
        <time>2021-09-10T22:59:33Z</time>
      </trkpt>
      <trkpt lat="45.70012" lon="3.38843">
        <ele>476</ele>
        <time>2021-09-10T22:59:39Z</time>
      </trkpt>
      <trkpt lat="45.69999" lon="3.3884">
        <ele>477</ele>
        <time>2021-09-10T22:59:42Z</time>
      </trkpt>
      <trkpt lat="45.69996" lon="3.38837">
        <ele>478</ele>
        <time>2021-09-10T22:59:43Z</time>
      </trkpt>
      <trkpt lat="45.69991" lon="3.38802">
        <ele>481</ele>
        <time>2021-09-10T22:59:48Z</time>
      </trkpt>
      <trkpt lat="45.69994" lon="3.38694">
        <ele>480</ele>
        <time>2021-09-10T23:00:06Z</time>
      </trkpt>
      <trkpt lat="45.69988" lon="3.38662">
        <ele>483</ele>
        <time>2021-09-10T23:00:11Z</time>
      </trkpt>
      <trkpt lat="45.69961" lon="3.38618">
        <ele>493</ele>
        <time>2021-09-10T23:00:21Z</time>
      </trkpt>
      <trkpt lat="45.69961" lon="3.38609">
        <ele>492</ele>
        <time>2021-09-10T23:00:22Z</time>
      </trkpt>
      <trkpt lat="45.69969" lon="3.38583">
        <ele>487</ele>
        <time>2021-09-10T23:00:27Z</time>
      </trkpt>
      <trkpt lat="45.70004" lon="3.38534">
        <ele>468</ele>
        <time>2021-09-10T23:00:39Z</time>
      </trkpt>
      <trkpt lat="45.7001" lon="3.38517">
        <ele>466</ele>
        <time>2021-09-10T23:00:42Z</time>
      </trkpt>
      <trkpt lat="45.70021" lon="3.38505">
        <ele>465</ele>
        <time>2021-09-10T23:00:45Z</time>
      </trkpt>
      <trkpt lat="45.70031" lon="3.385">
        <ele>465</ele>
        <time>2021-09-10T23:00:47Z</time>
      </trkpt>
      <trkpt lat="45.70049" lon="3.38501">
        <ele>465</ele>
        <time>2021-09-10T23:00:52Z</time>
      </trkpt>
      <trkpt lat="45.70073" lon="3.38487">
        <ele>464</ele>
        <time>2021-09-10T23:00:58Z</time>
      </trkpt>
      <trkpt lat="45.70106" lon="3.38475">
        <ele>464</ele>
        <time>2021-09-10T23:01:06Z</time>
      </trkpt>
      <trkpt lat="45.70127" lon="3.38459">
        <ele>465</ele>
        <time>2021-09-10T23:01:11Z</time>
      </trkpt>
      <trkpt lat="45.70137" lon="3.38446">
        <ele>465</ele>
        <time>2021-09-10T23:01:14Z</time>
      </trkpt>
      <trkpt lat="45.70134" lon="3.38401">
        <ele>465</ele>
        <time>2021-09-10T23:01:22Z</time>
      </trkpt>
      <trkpt lat="45.70129" lon="3.38381">
        <ele>467</ele>
        <time>2021-09-10T23:01:25Z</time>
      </trkpt>
      <trkpt lat="45.70098" lon="3.38325">
        <ele>464</ele>
        <time>2021-09-10T23:01:37Z</time>
      </trkpt>
      <trkpt lat="45.70052" lon="3.38322">
        <ele>462</ele>
        <time>2021-09-10T23:01:48Z</time>
      </trkpt>
      <trkpt lat="45.70049" lon="3.38304">
        <ele>464</ele>
        <time>2021-09-10T23:01:51Z</time>
      </trkpt>
      <trkpt lat="45.70036" lon="3.38305">
        <ele>463</ele>
        <time>2021-09-10T23:01:54Z</time>
      </trkpt>
      <trkpt lat="45.70024" lon="3.38303">
        <ele>463</ele>
        <time>2021-09-10T23:01:56Z</time>
      </trkpt>
      <trkpt lat="45.69999" lon="3.38266">
        <ele>460</ele>
        <time>2021-09-10T23:02:05Z</time>
      </trkpt>
      <trkpt lat="45.69997" lon="3.38253">
        <ele>460</ele>
        <time>2021-09-10T23:02:07Z</time>
      </trkpt>
      <trkpt lat="45.69998" lon="3.38196">
        <ele>461</ele>
        <time>2021-09-10T23:02:16Z</time>
      </trkpt>
      <trkpt lat="45.70011" lon="3.38148">
        <ele>464</ele>
        <time>2021-09-10T23:02:25Z</time>
      </trkpt>
      <trkpt lat="45.7004" lon="3.38089">
        <ele>465</ele>
        <time>2021-09-10T23:02:36Z</time>
      </trkpt>
      <trkpt lat="45.70047" lon="3.38088">
        <ele>465</ele>
        <time>2021-09-10T23:02:38Z</time>
      </trkpt>
      <trkpt lat="45.70092" lon="3.38026">
        <ele>460</ele>
        <time>2021-09-10T23:02:53Z</time>
      </trkpt>
      <trkpt lat="45.70104" lon="3.38018">
        <ele>463</ele>
        <time>2021-09-10T23:02:56Z</time>
      </trkpt>
      <trkpt lat="45.70124" lon="3.3799">
        <ele>466</ele>
        <time>2021-09-10T23:03:02Z</time>
      </trkpt>
      <trkpt lat="45.70137" lon="3.37965">
        <ele>467</ele>
        <time>2021-09-10T23:03:07Z</time>
      </trkpt>
      <trkpt lat="45.70153" lon="3.37925">
        <ele>467</ele>
        <time>2021-09-10T23:03:15Z</time>
      </trkpt>
      <trkpt lat="45.70188" lon="3.37904">
        <ele>472</ele>
        <time>2021-09-10T23:03:24Z</time>
      </trkpt>
      <trkpt lat="45.70203" lon="3.37899">
        <ele>474</ele>
        <time>2021-09-10T23:03:27Z</time>
      </trkpt>
      <trkpt lat="45.70208" lon="3.37892">
        <ele>474</ele>
        <time>2021-09-10T23:03:29Z</time>
      </trkpt>
      <trkpt lat="45.70238" lon="3.37883">
        <ele>479</ele>
        <time>2021-09-10T23:03:36Z</time>
      </trkpt>
      <trkpt lat="45.7027" lon="3.37877">
        <ele>487</ele>
        <time>2021-09-10T23:03:44Z</time>
      </trkpt>
      <trkpt lat="45.70293" lon="3.37844">
        <ele>486</ele>
        <time>2021-09-10T23:03:51Z</time>
      </trkpt>
      <trkpt lat="45.70355" lon="3.37799">
        <ele>493</ele>
        <time>2021-09-10T23:04:08Z</time>
      </trkpt>
      <trkpt lat="45.70588" lon="3.37787">
        <ele>507</ele>
        <time>2021-09-10T23:05:02Z</time>
      </trkpt>
      <trkpt lat="45.70661" lon="3.37822">
        <ele>512</ele>
        <time>2021-09-10T23:05:20Z</time>
      </trkpt>
      <trkpt lat="45.70725" lon="3.37829">
        <ele>513</ele>
        <time>2021-09-10T23:05:35Z</time>
      </trkpt>
      <trkpt lat="45.70758" lon="3.37848">
        <ele>513</ele>
        <time>2021-09-10T23:05:43Z</time>
      </trkpt>
      <trkpt lat="45.70774" lon="3.37758">
        <ele>512</ele>
        <time>2021-09-10T23:05:58Z</time>
      </trkpt>
      <trkpt lat="45.70786" lon="3.37706">
        <ele>511</ele>
        <time>2021-09-10T23:06:07Z</time>
      </trkpt>
      <trkpt lat="45.70807" lon="3.37679">
        <ele>509</ele>
        <time>2021-09-10T23:06:14Z</time>
      </trkpt>
      <trkpt lat="45.70782" lon="3.37532">
        <ele>504</ele>
        <time>2021-09-10T23:06:39Z</time>
      </trkpt>
      <trkpt lat="45.708" lon="3.37498">
        <ele>501</ele>
        <time>2021-09-10T23:06:46Z</time>
      </trkpt>
      <trkpt lat="45.70833" lon="3.3735">
        <ele>486</ele>
        <time>2021-09-10T23:07:11Z</time>
      </trkpt>
      <trkpt lat="45.70846" lon="3.37319">
        <ele>486</ele>
        <time>2021-09-10T23:07:17Z</time>
      </trkpt>
      <trkpt lat="45.70904" lon="3.37337">
        <ele>491</ele>
        <time>2021-09-10T23:07:31Z</time>
      </trkpt>
      <trkpt lat="45.70935" lon="3.37393">
        <ele>493</ele>
        <time>2021-09-10T23:07:42Z</time>
      </trkpt>
      <trkpt lat="45.70963" lon="3.37433">
        <ele>493</ele>
        <time>2021-09-10T23:07:52Z</time>
      </trkpt>
      <trkpt lat="45.70967" lon="3.37434">
        <ele>493</ele>
        <time>2021-09-10T23:07:52Z</time>
      </trkpt>
      <trkpt lat="45.70998" lon="3.37414">
        <ele>492</ele>
        <time>2021-09-10T23:08:00Z</time>
      </trkpt>
      <trkpt lat="45.71027" lon="3.37383">
        <ele>488</ele>
        <time>2021-09-10T23:08:09Z</time>
      </trkpt>
      <trkpt lat="45.71044" lon="3.37372">
        <ele>486</ele>
        <time>2021-09-10T23:08:13Z</time>
      </trkpt>
      <trkpt lat="45.71057" lon="3.3737">
        <ele>485</ele>
        <time>2021-09-10T23:08:16Z</time>
      </trkpt>
      <trkpt lat="45.71094" lon="3.3738">
        <ele>482</ele>
        <time>2021-09-10T23:08:25Z</time>
      </trkpt>
      <trkpt lat="45.71134" lon="3.37382">
        <ele>478</ele>
        <time>2021-09-10T23:08:34Z</time>
      </trkpt>
      <trkpt lat="45.71144" lon="3.37399">
        <ele>478</ele>
        <time>2021-09-10T23:08:38Z</time>
      </trkpt>
      <trkpt lat="45.71159" lon="3.37506">
        <ele>481</ele>
        <time>2021-09-10T23:08:56Z</time>
      </trkpt>
      <trkpt lat="45.71162" lon="3.37504">
        <ele>481</ele>
        <time>2021-09-10T23:08:57Z</time>
      </trkpt>
      <trkpt lat="45.7118" lon="3.37455">
        <ele>476</ele>
        <time>2021-09-10T23:09:06Z</time>
      </trkpt>
      <trkpt lat="45.71198" lon="3.37372">
        <ele>470</ele>
        <time>2021-09-10T23:09:20Z</time>
      </trkpt>
      <trkpt lat="45.7121" lon="3.37347">
        <ele>467</ele>
        <time>2021-09-10T23:09:25Z</time>
      </trkpt>
      <trkpt lat="45.71336" lon="3.37175">
        <ele>450</ele>
        <time>2021-09-10T23:10:05Z</time>
      </trkpt>
      <trkpt lat="45.71392" lon="3.37081">
        <ele>437</ele>
        <time>2021-09-10T23:10:26Z</time>
      </trkpt>
      <trkpt lat="45.71444" lon="3.36959">
        <ele>423</ele>
        <time>2021-09-10T23:10:49Z</time>
      </trkpt>
      <trkpt lat="45.71502" lon="3.36807">
        <ele>412</ele>
        <time>2021-09-10T23:11:17Z</time>
      </trkpt>
      <trkpt lat="45.71593" lon="3.36546">
        <ele>393</ele>
        <time>2021-09-10T23:12:05Z</time>
      </trkpt>
      <trkpt lat="45.71617" lon="3.36423">
        <ele>383</ele>
        <time>2021-09-10T23:12:25Z</time>
      </trkpt>
      <trkpt lat="45.71624" lon="3.36357">
        <ele>378</ele>
        <time>2021-09-10T23:12:36Z</time>
      </trkpt>
      <trkpt lat="45.71596" lon="3.36231">
        <ele>376</ele>
        <time>2021-09-10T23:12:58Z</time>
      </trkpt>
      <trkpt lat="45.71602" lon="3.36215">
        <ele>378</ele>
        <time>2021-09-10T23:13:01Z</time>
      </trkpt>
      <trkpt lat="45.71607" lon="3.36212">
        <ele>378</ele>
        <time>2021-09-10T23:13:02Z</time>
      </trkpt>
      <trkpt lat="45.71629" lon="3.36204">
        <ele>379</ele>
        <time>2021-09-10T23:13:07Z</time>
      </trkpt>
      <trkpt lat="45.71654" lon="3.36201">
        <ele>379</ele>
        <time>2021-09-10T23:13:13Z</time>
      </trkpt>
      <trkpt lat="45.71682" lon="3.36184">
        <ele>379</ele>
        <time>2021-09-10T23:13:20Z</time>
      </trkpt>
      <trkpt lat="45.71704" lon="3.36142">
        <ele>381</ele>
        <time>2021-09-10T23:13:29Z</time>
      </trkpt>
      <trkpt lat="45.71717" lon="3.36082">
        <ele>383</ele>
        <time>2021-09-10T23:13:39Z</time>
      </trkpt>
      <trkpt lat="45.71724" lon="3.36022">
        <ele>379</ele>
        <time>2021-09-10T23:13:49Z</time>
      </trkpt>
      <trkpt lat="45.71723" lon="3.35981">
        <ele>377</ele>
        <time>2021-09-10T23:13:56Z</time>
      </trkpt>
      <trkpt lat="45.71708" lon="3.35913">
        <ele>375</ele>
        <time>2021-09-10T23:14:07Z</time>
      </trkpt>
      <trkpt lat="45.71711" lon="3.35892">
        <ele>375</ele>
        <time>2021-09-10T23:14:11Z</time>
      </trkpt>
      <trkpt lat="45.71719" lon="3.35874">
        <ele>374</ele>
        <time>2021-09-10T23:14:14Z</time>
      </trkpt>
      <trkpt lat="45.71731" lon="3.35858">
        <ele>374</ele>
        <time>2021-09-10T23:14:18Z</time>
      </trkpt>
      <trkpt lat="45.71789" lon="3.35814">
        <ele>375</ele>
        <time>2021-09-10T23:14:34Z</time>
      </trkpt>
      <trkpt lat="45.71807" lon="3.35781">
        <ele>377</ele>
        <time>2021-09-10T23:14:40Z</time>
      </trkpt>
      <trkpt lat="45.71822" lon="3.3572">
        <ele>380</ele>
        <time>2021-09-10T23:14:51Z</time>
      </trkpt>
      <trkpt lat="45.71829" lon="3.35649">
        <ele>382</ele>
        <time>2021-09-10T23:15:03Z</time>
      </trkpt>
      <trkpt lat="45.71825" lon="3.35561">
        <ele>380</ele>
        <time>2021-09-10T23:15:17Z</time>
      </trkpt>
      <trkpt lat="45.71839" lon="3.35434">
        <ele>376</ele>
        <time>2021-09-10T23:15:38Z</time>
      </trkpt>
      <trkpt lat="45.71897" lon="3.35328">
        <ele>376</ele>
        <time>2021-09-10T23:16:00Z</time>
      </trkpt>
      <trkpt lat="45.7196" lon="3.35172">
        <ele>378</ele>
        <time>2021-09-10T23:16:29Z</time>
      </trkpt>
      <trkpt lat="45.72003" lon="3.35081">
        <ele>379</ele>
        <time>2021-09-10T23:16:47Z</time>
      </trkpt>
      <trkpt lat="45.72043" lon="3.35031">
        <ele>379</ele>
        <time>2021-09-10T23:17:00Z</time>
      </trkpt>
      <trkpt lat="45.72063" lon="3.35016">
        <ele>380</ele>
        <time>2021-09-10T23:17:05Z</time>
      </trkpt>
      <trkpt lat="45.72112" lon="3.35031">
        <ele>379</ele>
        <time>2021-09-10T23:17:17Z</time>
      </trkpt>
      <trkpt lat="45.72041" lon="3.34533">
        <ele>386</ele>
        <time>2021-09-10T23:18:39Z</time>
      </trkpt>
      <trkpt lat="45.72042" lon="3.34503">
        <ele>386</ele>
        <time>2021-09-10T23:18:44Z</time>
      </trkpt>
      <trkpt lat="45.7205" lon="3.34451">
        <ele>383</ele>
        <time>2021-09-10T23:18:53Z</time>
      </trkpt>
      <trkpt lat="45.72035" lon="3.34221">
        <ele>370</ele>
        <time>2021-09-10T23:19:31Z</time>
      </trkpt>
      <trkpt lat="45.72022" lon="3.34147">
        <ele>368</ele>
        <time>2021-09-10T23:19:43Z</time>
      </trkpt>
      <trkpt lat="45.72021" lon="3.34083">
        <ele>368</ele>
        <time>2021-09-10T23:19:54Z</time>
      </trkpt>
      <trkpt lat="45.72001" lon="3.33971">
        <ele>364</ele>
        <time>2021-09-10T23:20:12Z</time>
      </trkpt>
      <trkpt lat="45.72003" lon="3.33933">
        <ele>362</ele>
        <time>2021-09-10T23:20:19Z</time>
      </trkpt>
      <trkpt lat="45.72012" lon="3.33873">
        <ele>359</ele>
        <time>2021-09-10T23:20:29Z</time>
      </trkpt>
      <trkpt lat="45.72032" lon="3.33816">
        <ele>358</ele>
        <time>2021-09-10T23:20:39Z</time>
      </trkpt>
      <trkpt lat="45.72094" lon="3.33703">
        <ele>367</ele>
        <time>2021-09-10T23:21:03Z</time>
      </trkpt>
      <trkpt lat="45.72144" lon="3.3362">
        <ele>373</ele>
        <time>2021-09-10T23:21:20Z</time>
      </trkpt>
      <trkpt lat="45.72167" lon="3.33602">
        <ele>372</ele>
        <time>2021-09-10T23:21:27Z</time>
      </trkpt>
      <trkpt lat="45.72194" lon="3.33599">
        <ele>371</ele>
        <time>2021-09-10T23:21:33Z</time>
      </trkpt>
      <trkpt lat="45.72228" lon="3.33612">
        <ele>369</ele>
        <time>2021-09-10T23:21:41Z</time>
      </trkpt>
      <trkpt lat="45.72248" lon="3.33627">
        <ele>368</ele>
        <time>2021-09-10T23:21:46Z</time>
      </trkpt>
      <trkpt lat="45.72258" lon="3.3359">
        <ele>366</ele>
        <time>2021-09-10T23:21:53Z</time>
      </trkpt>
      <trkpt lat="45.72264" lon="3.33501">
        <ele>361</ele>
        <time>2021-09-10T23:22:07Z</time>
      </trkpt>
      <trkpt lat="45.72259" lon="3.33441">
        <ele>359</ele>
        <time>2021-09-10T23:22:17Z</time>
      </trkpt>
      <trkpt lat="45.72251" lon="3.33389">
        <ele>358</ele>
        <time>2021-09-10T23:22:26Z</time>
      </trkpt>
      <trkpt lat="45.72235" lon="3.33334">
        <ele>356</ele>
        <time>2021-09-10T23:22:36Z</time>
      </trkpt>
      <trkpt lat="45.7224" lon="3.33316">
        <ele>355</ele>
        <time>2021-09-10T23:22:39Z</time>
      </trkpt>
    </trkseg>
  </trk>
</gpx>